Data for 07/30/2010

Time Sea-Level Adjusted Pressure Absolute Pressure Temperature Relative Humidity Dew Point Precipitation   
(mb) (inHg) (mb) (inHg) (C) (F) (%) (C) (F) (mm) (in)
00:01 1023 30.21 852 25.16 14 57.1 56 5.3 41.6 14.37 0.566
00:02 1023 30.21 852 25.16 14 57.3 56 5.5 41.8 14.42 0.568
00:03 1023 30.21 852 25.16 14.1 57.4 56 5.4 41.8 14.49 0.57
00:04 1023 30.21 852 25.16 14.1 57.4 55 5.4 41.8 14.52 0.572
00:05 1023 30.21 852 25.16 14.1 57.4 55 5.4 41.7 14.5 0.571
00:06 1023 30.21 852 25.16 14.1 57.4 55 5.3 41.6 14.48 0.57
00:07 1023 30.21 852 25.16 14.2 57.5 56 5.5 41.9 14.52 0.572
00:08 1023 30.21 852 25.16 14.2 57.5 55 5.3 41.6 14.51 0.571
00:09 1023 30.21 852 25.16 14.2 57.5 55 5.3 41.5 14.56 0.573
00:10 1023 30.21 852 25.16 14.2 57.6 54 5.2 41.4 14.6 0.575
00:11 1023 30.21 852 25.16 14.3 57.7 54 5.2 41.4 14.67 0.578
00:12 1023 30.21 852 25.16 14.3 57.8 54 5.2 41.4 14.68 0.578
00:13 1023 30.21 852 25.16 14.4 57.9 53 5.1 41.1 14.72 0.58
00:14 1023 30.21 852 25.16 14.4 58 52 4.8 40.6 14.79 0.582
00:15 1023 30.21 852 25.16 14.6 58.2 51 4.7 40.5 14.93 0.588
00:16 1023 30.21 852 25.16 14.7 58.5 51 4.9 40.7 15.04 0.592
00:17 1023 30.21 852 25.16 14.8 58.6 51 4.9 40.8 15.1 0.594
00:18 1023 30.21 852 25.16 14.8 58.6 51 4.9 40.8 15.09 0.594
00:19 1023 30.21 852 25.16 14.7 58.4 53 5.4 41.7 15.02 0.591
00:20 1023 30.21 852 25.16 14.4 57.9 55 5.6 42.1 14.73 0.58
00:21 1023 30.21 852 25.16 14.1 57.4 55 5.3 41.5 14.49 0.57
00:22 1023 30.21 852 25.16 14 57.2 55 5.2 41.4 14.35 0.565
00:23 1023 30.21 852 25.16 14 57.2 55 5.1 41.2 14.33 0.564
00:24 1023 30.21 852 25.16 14 57.3 55 5.1 41.2 14.41 0.567
00:25 1023 30.21 852 25.16 14.2 57.5 53 4.9 40.8 14.5 0.571
00:26 1023 30.21 852 25.16 14.2 57.6 53 4.8 40.7 14.59 0.574
00:27 1023 30.21 852 25.16 14.3 57.7 54 5.1 41.1 14.61 0.575
00:28 1023 30.21 852 25.16 14.2 57.6 54 5.1 41.2 14.58 0.574
00:29 1023 30.21 852 25.16 14.2 57.5 55 5.4 41.8 14.55 0.573
00:30 1023 30.21 852 25.16 14 57.1 56 5.5 41.8 14.39 0.567
00:31 1023 30.21 852 25.16 13.7 56.7 57 5.5 41.9 14.14 0.557
00:32 1023 30.21 852 25.16 13.5 56.2 59 5.6 42 13.91 0.548
00:33 1023 30.21 852 25.16 13.3 55.9 59 5.4 41.7 13.73 0.541
00:34 1023 30.21 852 25.16 13.1 55.6 59 5.4 41.8 13.54 0.533
00:35 1023 30.21 852 25.16 13 55.4 59 5.3 41.6 13.44 0.529
00:36 1023 30.21 852 25.16 13 55.3 60 5.5 41.9 13.37 0.526
00:37 1023 30.21 852 25.16 12.8 55 61 5.5 42 13.2 0.52
00:38 1023 30.21 852 25.16 12.6 54.6 62 5.4 41.8 13.03 0.513
00:39 1023 30.21 852 25.16 12.4 54.3 61 5.3 41.5 12.87 0.507
00:40 1023 30.21 852 25.16 12.4 54.3 61 5.1 41.2 12.82 0.505
00:41 1023 30.21 852 25.16 12.5 54.5 60 5.1 41.1 12.89 0.507
00:42 1023 30.21 852 25.16 12.6 54.7 60 5.2 41.3 12.95 0.51
00:43 1023 30.21 852 25.16 12.6 54.7 60 5.1 41.2 12.94 0.509
00:44 1023 30.21 852 25.16 12.6 54.7 62 5.6 42.2 12.91 0.508
00:45 1023 30.21 852 25.16 12.5 54.5 63 5.7 42.3 12.87 0.507
00:46 1023 30.21 852 25.16 12.5 54.4 62 5.4 41.8 12.82 0.505
00:47 1023 30.21 852 25.16 12.6 54.7 62 5.5 41.9 12.95 0.51
00:48 1023 30.21 852 25.16 12.7 54.8 62 5.6 42 12.98 0.511
00:49 1023 30.21 852 25.16 12.6 54.8 61 5.3 41.5 12.98 0.511
00:50 1023 30.21 852 25.16 12.7 54.9 60 5.3 41.5 13.11 0.516
00:51 1023 30.21 852 25.16 12.8 55 60 5.3 41.5 13.15 0.518
00:52 1023 30.21 852 25.16 12.9 55.1 59 5.2 41.3 13.18 0.519
00:53 1023 30.21 853 25.19 12.9 55.2 59 5.2 41.4 13.22 0.52
00:54 1023 30.21 852 25.16 12.9 55.2 60 5.3 41.5 13.24 0.521
00:55 1023 30.21 853 25.19 12.9 55.2 59 5.1 41.2 13.23 0.521
00:56 1023 30.21 853 25.19 12.9 55.3 59 5.3 41.5 13.24 0.521
00:57 1023 30.21 853 25.19 12.9 55.2 59 5.1 41.2 13.21 0.52
00:58 1023 30.21 853 25.19 12.9 55.3 59 5.3 41.5 13.24 0.521
00:59 1023 30.21 853 25.19 12.9 55.1 61 5.6 42.1 13.16 0.518
01:00 1023 30.21 853 25.19 12.7 54.8 62 5.7 42.3 13.05 0.514
01:01 1023 30.21 853 25.19 12.4 54.4 63 5.6 42.2 12.86 0.506
01:02 1023 30.21 853 25.19 12.3 54.2 62 5.3 41.6 12.73 0.501
01:03 1023 30.21 853 25.19 12.3 54.2 62 5.3 41.6 12.72 0.501
01:04 1023 30.21 853 25.19 12.3 54.2 62 5.3 41.6 12.63 0.497
01:05 1023 30.21 853 25.19 12.3 54.1 62 5.2 41.4 12.61 0.496
01:06 1023 30.21 853 25.19 12.3 54.1 62 5.2 41.3 12.61 0.496
01:07 1023 30.21 853 25.19 12.3 54.2 61 5 41 12.65 0.498
01:08 1023 30.21 853 25.19 12.4 54.4 60 5 41 12.74 0.502
01:09 1023 30.21 853 25.19 12.5 54.6 60 5.1 41.1 12.86 0.506
01:10 1023 30.21 853 25.19 12.7 54.8 60 5.1 41.2 12.97 0.511
01:11 1023 30.21 853 25.19 12.7 54.8 60 5.1 41.1 12.99 0.511
01:12 1023 30.21 853 25.19 12.7 54.8 60 5.1 41.2 13 0.512
01:13 1023 30.21 853 25.19 12.7 54.9 59 4.9 40.7 13.02 0.513
01:14 1023 30.21 853 25.19 12.9 55.2 58 5 41 13.17 0.519
01:15 1023 30.21 853 25.19 13 55.4 58 4.9 40.9 13.28 0.523
01:16 1023 30.21 853 25.19 13.1 55.7 56 4.7 40.4 13.4 0.528
01:17 1023 30.21 853 25.19 13.3 56 57 4.9 40.9 13.59 0.535
01:18 1023 30.21 853 25.19 13.4 56.1 55 4.7 40.4 13.69 0.539
01:19 1023 30.21 853 25.19 13.5 56.4 55 4.7 40.4 13.82 0.544
01:20 1023 30.21 853 25.19 13.7 56.7 54 4.7 40.4 14 0.551
01:21 1023 30.21 853 25.19 13.8 56.9 53 4.5 40.1 14.07 0.554
01:22 1023 30.21 853 25.19 14 57.2 52 4.4 40 14.26 0.561
01:23 1023 30.21 853 25.19 14.2 57.5 52 4.6 40.3 14.44 0.569
01:24 1023 30.21 853 25.19 14.3 57.7 52 4.6 40.3 14.5 0.571
01:25 1023 30.21 853 25.19 14.4 57.9 51 4.4 40 14.64 0.576
01:26 1023 30.21 853 25.19 14.5 58 52 4.8 40.7 14.71 0.579
01:27 1023 30.21 853 25.19 14.4 57.9 52 4.8 40.6 14.69 0.578
01:28 1023 30.21 853 25.19 14.4 57.9 51 4.6 40.2 14.68 0.578
01:29 1023 30.21 853 25.19 14.5 58.1 51 4.6 40.2 14.8 0.583
01:30 1023 30.21 853 25.19 14.6 58.3 52 4.8 40.7 14.93 0.588
01:31 1023 30.21 853 25.19 14.6 58.3 53 5.3 41.5 14.92 0.587
01:32 1023 30.21 853 25.19 14.5 58.1 54 5.4 41.8 14.82 0.583
01:33 1023 30.21 853 25.19 14.4 57.8 52 4.8 40.7 14.7 0.579
01:34 1023 30.21 853 25.19 14.4 57.9 52 4.8 40.7 14.68 0.578
01:35 1023 30.21 853 25.19 14.4 58 52 4.9 40.7 14.68 0.578
01:36 1023 30.21 853 25.19 14.5 58 52 4.8 40.7 14.7 0.579
01:37 1023 30.21 853 25.19 14.4 57.9 54 5.2 41.4 14.65 0.577
01:38 1023 30.21 853 25.19 14.3 57.7 54 5.1 41.2 14.59 0.574
01:39 1023 30.21 853 25.19 14.2 57.5 53 4.9 40.7 14.49 0.57
01:40 1023 30.21 853 25.19 14.1 57.4 56 5.4 41.8 14.43 0.568
01:41 1023 30.21 853 25.19 13.9 57.1 54 4.9 40.8 14.26 0.561
01:42 1023 30.21 853 25.19 13.9 57 54 4.9 40.8 14.22 0.56
01:43 1023 30.21 853 25.19 13.9 57 54 4.7 40.5 14.18 0.558
01:44 1023 30.21 853 25.19 13.9 57 54 4.9 40.7 14.2 0.559
01:45 1023 30.21 853 25.19 13.8 56.8 55 4.9 40.8 14.14 0.557
01:46 1023 30.21 853 25.19 13.7 56.6 55 4.9 40.8 13.99 0.551
01:47 1023 30.21 853 25.19 13.6 56.4 55 4.9 40.8 13.91 0.548
01:48 1023 30.21 853 25.19 13.5 56.3 56 4.8 40.7 13.79 0.543
01:49 1023 30.21 853 25.19 13.4 56.1 56 4.8 40.6 13.74 0.541
01:50 1023 30.21 853 25.19 13.3 56 56 4.9 40.8 13.66 0.538
01:51 1023 30.21 853 25.19 13.2 55.8 57 4.9 40.8 13.61 0.536
01:52 1023 30.21 853 25.19 13.2 55.8 57 5 41 13.52 0.532
01:53 1023 30.21 853 25.19 13.1 55.6 58 5 41 13.46 0.53
01:54 1023 30.21 853 25.19 13 55.3 57 4.7 40.5 13.33 0.525
01:55 1023 30.21 853 25.19 12.9 55.3 58 5 41.1 13.31 0.524
01:56 1023 30.21 853 25.19 12.9 55.2 58 4.8 40.7 13.19 0.519
01:57 1023 30.21 853 25.19 12.9 55.2 57 4.6 40.3 13.2 0.52
01:58 1023 30.21 853 25.19 12.9 55.3 57 4.6 40.3 13.29 0.523
01:59 1023 30.21 853 25.19 13 55.5 57 4.7 40.5 13.32 0.524
02:00 1023 30.21 853 25.19 13 55.4 57 4.8 40.7 13.35 0.526
02:01 1023 30.21 853 25.19 12.9 55.2 58 4.9 40.9 13.26 0.522
02:02 1023 30.21 853 25.19 12.8 55 58 4.8 40.6 13.17 0.519
02:03 1023 30.21 853 25.19 12.8 55 58 4.7 40.5 13.14 0.517
02:04 1023 30.21 853 25.19 12.7 54.9 57 4.5 40.1 13.11 0.516
02:05 1023 30.21 853 25.19 12.8 55 58 4.8 40.6 13.13 0.517
02:06 1023 30.21 853 25.19 12.7 54.9 58 4.7 40.4 13.1 0.516
02:07 1023 30.21 853 25.19 12.7 54.8 59 4.8 40.7 13.02 0.513
02:08 1023 30.21 853 25.19 12.6 54.6 59 4.8 40.6 12.93 0.509
02:09 1023 30.21 853 25.19 12.5 54.5 59 4.7 40.5 12.88 0.507
02:10 1023 30.21 853 25.19 12.4 54.4 59 4.7 40.5 12.8 0.504
02:11 1023 30.21 853 25.19 12.4 54.4 59 4.7 40.4 12.77 0.503
02:12 1023 30.21 853 25.19 12.5 54.4 58 4.4 39.9 12.83 0.505
02:13 1023 30.21 853 25.19 12.7 54.8 55 3.9 39 13.02 0.513
02:14 1023 30.21 853 25.19 13 55.3 53 3.8 38.8 13.29 0.523
02:15 1023 30.21 853 25.19 13.2 55.8 53 4 39.2 13.58 0.535
02:16 1023 30.21 853 25.19 13.4 56.2 53 4 39.2 13.73 0.541
02:17 1023 30.21 853 25.19 13.4 56.2 52 3.9 39 13.79 0.543
02:18 1023 30.21 853 25.19 13.5 56.3 51 3.7 38.7 13.84 0.545
02:19 1023 30.21 853 25.19 13.6 56.5 52 3.9 39 13.94 0.549
02:20 1023 30.21 853 25.19 13.6 56.5 51 3.6 38.5 13.96 0.55
02:21 1023 30.21 853 25.19 13.7 56.6 51 3.9 39 14 0.551
02:22 1023 30.21 853 25.19 13.7 56.7 52 4 39.2 14.07 0.554
02:23 1023 30.21 853 25.19 13.7 56.7 52 4.1 39.4 14.04 0.553
02:24 1023 30.21 853 25.19 13.6 56.5 53 4.2 39.5 14 0.551
02:25 1023 30.21 853 25.19 13.6 56.4 53 4.2 39.5 13.91 0.548
02:26 1023 30.21 853 25.19 13.5 56.3 53 4.1 39.3 13.89 0.547
02:27 1023 30.21 853 25.19 13.5 56.3 52 4 39.2 13.88 0.546
02:28 1023 30.21 853 25.19 13.5 56.3 52 4 39.2 13.84 0.545
02:29 1023 30.21 853 25.19 13.5 56.3 52 4 39.1 13.87 0.546
02:30 1024 30.24 853 25.19 13.5 56.3 53 4.2 39.6 13.88 0.546
02:31 1023 30.21 853 25.19 13.5 56.2 54 4.4 40 13.84 0.545
02:32 1023 30.21 853 25.19 13.4 56.2 54 4.3 39.8 13.76 0.542
02:33 1023 30.21 853 25.19 13.4 56.2 53 4.1 39.3 13.81 0.544
02:34 1023 30.21 853 25.19 13.5 56.3 53 4 39.3 13.88 0.546
02:35 1023 30.21 853 25.19 13.6 56.5 52 4 39.3 13.97 0.55
02:36 1023 30.21 853 25.19 13.7 56.6 52 4 39.2 14.05 0.553
02:37 1023 30.21 853 25.19 13.8 56.8 51 3.9 39 14.14 0.557
02:38 1023 30.21 853 25.19 13.8 56.9 51 4.1 39.4 14.19 0.559
02:39 1023 30.21 853 25.19 13.9 56.9 53 4.4 39.9 14.2 0.559
02:40 1023 30.21 853 25.19 13.7 56.7 54 4.6 40.2 14.12 0.556
02:41 1024 30.24 853 25.19 13.6 56.5 53 4.3 39.8 14 0.551
02:42 1023 30.21 853 25.19 13.5 56.4 54 4.5 40.2 13.91 0.548
02:43 1024 30.24 853 25.19 13.5 56.2 55 4.7 40.4 13.84 0.545
02:44 1024 30.24 853 25.19 13.3 56 56 4.7 40.5 13.72 0.54
02:45 1024 30.24 853 25.19 13.2 55.7 56 4.8 40.6 13.59 0.535
02:46 1023 30.21 853 25.19 13 55.5 58 4.9 40.9 13.46 0.53
02:47 1024 30.24 853 25.19 13 55.3 58 4.9 40.8 13.39 0.527
02:48 1023 30.21 853 25.19 12.9 55.2 59 5.1 41.1 13.29 0.523
02:49 1024 30.24 853 25.19 12.8 55 60 5.2 41.3 13.16 0.518
02:50 1024 30.24 853 25.19 12.6 54.7 61 5.3 41.6 13.01 0.512
02:51 1023 30.21 853 25.19 12.5 54.4 61 5.2 41.4 12.85 0.506
02:52 1023 30.21 853 25.19 12.4 54.3 61 5.1 41.1 12.8 0.504
02:53 1023 30.21 853 25.19 12.4 54.3 61 5.2 41.4 12.76 0.502
02:54 1023 30.21 853 25.19 12.4 54.2 61 5.1 41.1 12.75 0.502
02:55 1024 30.24 853 25.19 12.4 54.3 61 5.1 41.3 12.75 0.502
02:56 1024 30.24 853 25.19 12.4 54.4 60 4.8 40.7 12.76 0.502
02:57 1024 30.24 853 25.19 12.5 54.5 60 5.1 41.1 12.85 0.506
02:58 1024 30.24 853 25.19 12.5 54.5 60 4.9 40.9 12.84 0.506
02:59 1024 30.24 853 25.19 12.5 54.5 60 5.1 41.1 12.81 0.504
03:00 1024 30.24 853 25.19 12.5 54.5 59 4.8 40.7 12.85 0.506
03:01 1024 30.24 853 25.19 12.6 54.6 60 5 41 12.92 0.509
03:02 1024 30.24 853 25.19 12.5 54.5 60 5 41 12.85 0.506
03:03 1024 30.24 853 25.19 12.4 54.4 60 5 41 12.8 0.504
03:04 1024 30.24 853 25.19 12.4 54.3 61 5 41.1 12.79 0.504
03:05 1024 30.24 853 25.19 12.4 54.4 61 5.1 41.2 12.8 0.504
03:06 1024 30.24 853 25.19 12.4 54.3 61 5.2 41.3 12.74 0.502
03:07 1024 30.24 853 25.19 12.3 54.2 62 5.2 41.4 12.68 0.499
03:08 1024 30.24 853 25.19 12.2 54 62 5.2 41.4 12.64 0.498
03:09 1024 30.24 853 25.19 12.2 54 61 5.1 41.1 12.57 0.495
03:10 1024 30.24 853 25.19 12.2 53.9 62 5.1 41.1 12.56 0.494
03:11 1024 30.24 853 25.19 12.2 53.9 62 5.1 41.2 12.54 0.494
03:12 1024 30.24 853 25.19 12.1 53.8 62 5.1 41.2 12.51 0.493
03:13 1024 30.24 853 25.19 12.1 53.8 62 5 41.1 12.47 0.491
03:14 1024 30.24 853 25.19 12.1 53.8 61 4.9 40.8 12.42 0.489
03:15 1024 30.24 853 25.19 12.1 53.9 61 4.9 40.9 12.46 0.491
03:16 1024 30.24 853 25.19 12.1 53.8 61 4.8 40.7 12.48 0.491
03:17 1024 30.24 853 25.19 12.2 53.9 61 4.8 40.7 12.5 0.492
03:18 1024 30.24 853 25.19 12.2 54 60 4.7 40.5 12.57 0.495
03:19 1024 30.24 853 25.19 12.4 54.2 60 4.8 40.7 12.69 0.5
03:20 1024 30.24 853 25.19 12.4 54.3 60 5 40.9 12.72 0.501
03:21 1024 30.24 853 25.19 12.4 54.4 60 5 40.9 12.7 0.5
03:22 1024 30.24 853 25.19 12.4 54.3 61 5.2 41.3 12.76 0.502
03:23 1024 30.24 853 25.19 12.4 54.3 61 5.2 41.3 12.7 0.5
03:24 1024 30.24 853 25.19 12.3 54.2 62 5.3 41.6 12.66 0.498
03:25 1024 30.24 853 25.19 12.3 54.1 62 5.3 41.6 12.63 0.497
03:26 1024 30.24 853 25.19 12.3 54.1 63 5.6 42 12.63 0.497
03:27 1024 30.24 853 25.19 12.2 53.9 63 5.5 41.9 12.56 0.494
03:28 1024 30.24 853 25.19 12.1 53.8 62 5.1 41.2 12.48 0.491
03:29 1024 30.24 853 25.19 12.2 54 62 5.2 41.3 12.52 0.493
03:30 1024 30.24 853 25.19 12.3 54.2 61 5.1 41.3 12.66 0.498
03:31 1024 30.24 853 25.19 12.4 54.4 61 5.2 41.4 12.72 0.501
03:32 1024 30.24 853 25.19 12.4 54.4 61 5.2 41.4 12.77 0.503
03:33 1024 30.24 853 25.19 12.4 54.4 61 5.2 41.3 12.79 0.504
03:34 1024 30.24 853 25.19 12.5 54.4 62 5.3 41.6 12.79 0.504
03:35 1024 30.24 853 25.19 12.4 54.3 61 5.2 41.4 12.76 0.502
03:36 1024 30.24 853 25.19 12.4 54.3 61 5.2 41.3 12.75 0.502
03:37 1024 30.24 853 25.19 12.5 54.4 61 5.1 41.3 12.77 0.503
03:38 1024 30.24 853 25.19 12.5 54.5 60 5 41 12.84 0.506
03:39 1024 30.24 853 25.19 12.5 54.6 60 5.1 41.3 12.89 0.507
03:40 1024 30.24 853 25.19 12.5 54.5 61 5.2 41.4 12.87 0.507
03:41 1024 30.24 853 25.19 12.5 54.4 60 5 41.1 12.83 0.505
03:42 1024 30.24 853 25.19 12.5 54.5 61 5.2 41.4 12.87 0.507
03:43 1024 30.24 853 25.19 12.5 54.5 61 5.2 41.3 12.82 0.505
03:44 1024 30.24 853 25.19 12.4 54.4 60 5 41 12.77 0.503
03:45 1024 30.24 853 25.19 12.4 54.4 60 5 41 12.78 0.503
03:46 1024 30.24 853 25.19 12.4 54.3 60 5 40.9 12.75 0.502
03:47 1024 30.24 853 25.19 12.4 54.2 61 5.1 41.2 12.7 0.5
03:48 1024 30.24 853 25.19 12.3 54.1 62 5.3 41.5 12.66 0.498
03:49 1024 30.24 853 25.19 12.2 53.9 63 5.4 41.7 12.56 0.494
03:50 1024 30.24 853 25.19 12 53.7 64 5.4 41.7 12.43 0.489
03:51 1024 30.24 853 25.19 11.9 53.4 64 5.3 41.6 12.34 0.486
03:52 1024 30.24 853 25.19 11.8 53.3 64 5.2 41.4 12.23 0.481
03:53 1024 30.24 853 25.19 11.8 53.2 63 5.1 41.2 12.17 0.479
03:54 1024 30.24 853 25.19 11.7 53.1 63 4.9 40.8 12.1 0.476
03:55 1024 30.24 853 25.19 11.8 53.2 62 4.9 40.8 12.13 0.478
03:56 1024 30.24 853 25.19 11.8 53.2 62 4.9 40.8 12.2 0.48
03:57 1024 30.24 853 25.19 11.8 53.3 62 4.9 40.9 12.15 0.478
03:58 1024 30.24 853 25.19 11.8 53.2 62 4.9 40.8 12.14 0.478
03:59 1024 30.24 853 25.19 11.8 53.2 63 4.9 40.9 12.09 0.476
04:00 1024 30.24 853 25.19 11.7 53.1 63 4.9 40.8 12.1 0.476
04:01 1024 30.24 853 25.19 11.7 53.1 63 4.9 40.9 12.09 0.476
04:02 1024 30.24 853 25.19 11.7 53 62 4.8 40.6 12.01 0.473
04:03 1024 30.24 853 25.19 11.7 53 62 4.7 40.5 12.01 0.473
04:04 1024 30.24 853 25.19 11.7 53 62 4.7 40.5 12.03 0.474
04:05 1024 30.24 853 25.19 11.6 53 63 4.8 40.6 11.99 0.472
04:06 1024 30.24 853 25.19 11.6 52.8 63 4.8 40.6 11.88 0.468
04:07 1024 30.24 853 25.19 11.5 52.6 63 4.8 40.6 11.77 0.463
04:08 1024 30.24 853 25.19 11.4 52.5 64 4.8 40.6 11.73 0.462
04:09 1024 30.24 853 25.19 11.3 52.4 64 4.8 40.7 11.65 0.459
04:10 1024 30.24 853 25.19 11.2 52.2 65 4.9 40.8 11.58 0.456
04:11 1024 30.24 853 25.19 11.1 51.9 66 4.9 40.8 11.44 0.45
04:12 1024 30.24 853 25.19 11 51.7 66 4.8 40.6 11.28 0.444
04:13 1024 30.24 853 25.19 10.8 51.5 66 4.7 40.4 11.17 0.44
04:14 1024 30.24 853 25.19 10.8 51.5 65 4.6 40.4 11.14 0.439
04:15 1024 30.24 853 25.19 10.8 51.5 65 4.6 40.4 11.12 0.438
04:16 1024 30.24 853 25.19 10.8 51.4 66 4.6 40.3 11.07 0.436
04:17 1024 30.24 853 25.19 10.7 51.3 66 4.6 40.3 11.03 0.434
04:18 1024 30.24 853 25.19 10.6 51.1 67 4.7 40.5 10.96 0.431
04:19 1024 30.24 853 25.19 10.5 50.9 68 4.8 40.7 10.86 0.428
04:20 1024 30.24 853 25.19 10.3 50.6 69 4.9 40.7 10.76 0.424
04:21 1024 30.24 853 25.19 10.3 50.5 69 4.9 40.8 10.67 0.42
04:22 1024 30.24 853 25.19 10.2 50.3 69 4.8 40.7 10.53 0.415
04:23 1024 30.24 853 25.19 10.1 50.1 69 4.7 40.5 10.42 0.41
04:24 1024 30.24 853 25.19 9.9 49.7 70 4.7 40.4 10.31 0.406
04:25 1024 30.24 853 25.19 9.8 49.6 70 4.6 40.3 10.23 0.403
04:26 1024 30.24 853 25.19 10 49.9 70 4.7 40.5 10.3 0.406
04:27 1024 30.24 853 25.19 10.1 50.1 69 4.6 40.2 10.39 0.409
04:28 1024 30.24 853 25.19 10.3 50.5 67 4.4 40 10.51 0.414
04:29 1024 30.24 853 25.19 10.5 50.9 66 4.5 40.1 10.69 0.421
04:30 1023 30.21 853 25.19 10.5 50.9 65 4.3 39.8 10.68 0.42
04:31 1024 30.24 853 25.19 10.4 50.7 66 4.5 40 10.67 0.42
04:32 1024 30.24 853 25.19 10.3 50.6 68 4.7 40.4 10.55 0.415
04:33 1024 30.24 853 25.19 10.1 50.2 69 4.8 40.7 10.44 0.411
04:34 1024 30.24 853 25.19 9.9 49.8 70 4.8 40.6 10.24 0.403
04:35 1024 30.24 853 25.19 9.7 49.5 69 4.4 40 10.1 0.398
04:36 1024 30.24 853 25.19 9.8 49.6 68 4.1 39.3 10.07 0.396
04:37 1024 30.24 853 25.19 9.9 49.9 67 4 39.3 10.14 0.399
04:38 1024 30.24 853 25.19 10 50.1 66 4.1 39.3 10.23 0.403
04:39 1024 30.24 853 25.19 10.1 50.2 66 4 39.3 10.3 0.406
04:40 1024 30.24 853 25.19 10.2 50.4 66 4.1 39.4 10.36 0.408
04:41 1024 30.24 853 25.19 10.2 50.4 66 4.1 39.4 10.44 0.411
04:42 1024 30.24 853 25.19 10.3 50.5 66 4.2 39.6 10.44 0.411
04:43 1024 30.24 853 25.19 10.3 50.5 66 4.1 39.4 10.49 0.413
04:44 1024 30.24 853 25.19 10.3 50.5 66 4.1 39.5 10.49 0.413
04:45 1024 30.24 853 25.19 10.2 50.3 67 4.3 39.7 10.46 0.412
04:46 1024 30.24 853 25.19 10 50.1 67 4.2 39.5 10.34 0.407
04:47 1024 30.24 853 25.19 10.1 50.1 66 4.1 39.4 10.33 0.407
04:48 1024 30.24 853 25.19 10.1 50.2 66 4 39.2 10.33 0.407
04:49 1024 30.24 853 25.19 10.1 50.2 67 4.3 39.8 10.34 0.407
04:50 1024 30.24 853 25.19 10 49.9 68 4.4 39.9 10.25 0.404
04:51 1024 30.24 853 25.19 9.8 49.6 67 3.9 39 10.12 0.398
04:52 1024 30.24 853 25.19 9.9 49.7 66 3.8 38.8 10.1 0.398
04:53 1024 30.24 853 25.19 10 50.1 65 3.8 38.9 10.19 0.401
04:54 1024 30.24 853 25.19 10.1 50.3 66 4.1 39.4 10.3 0.406
04:55 1024 30.24 853 25.19 10.2 50.3 65 4 39.2 10.34 0.407
04:56 1024 30.24 853 25.19 10.1 50.1 67 4.2 39.6 10.34 0.407
04:57 1023 30.21 853 25.19 9.9 49.7 68 4.2 39.5 10.14 0.399
04:58 1024 30.24 853 25.19 9.7 49.5 68 4 39.2 9.98 0.393
04:59 1024 30.24 853 25.19 9.7 49.4 67 4 39.2 9.92 0.391
05:00 1023 30.21 853 25.19 9.8 49.7 67 4 39.3 9.97 0.393
05:01 1024 30.24 853 25.19 9.8 49.6 67 3.9 39 9.91 0.39
05:02 1024 30.24 853 25.19 9.7 49.5 68 4.1 39.4 9.94 0.391
05:03 1024 30.24 853 25.19 9.6 49.2 68 4 39.2 9.82 0.387
05:04 1024 30.24 853 25.19 9.5 49.1 68 4 39.2 9.79 0.385
05:05 1024 30.24 853 25.19 9.4 48.9 70 4.2 39.6 9.7 0.382
05:06 1024 30.24 853 25.19 9.2 48.5 71 4.2 39.5 9.51 0.374
05:07 1024 30.24 853 25.19 9 48.2 72 4.2 39.5 9.33 0.367
05:08 1024 30.24 853 25.19 8.9 47.9 72 4.2 39.5 9.19 0.362
05:09 1024 30.24 853 25.19 8.7 47.7 73 4.1 39.4 9.15 0.36
05:10 1024 30.24 853 25.19 8.8 47.8 72 4 39.3 9.15 0.36
05:11 1024 30.24 853 25.19 9.1 48.3 68 3.6 38.4 9.38 0.369
05:12 1024 30.24 853 25.19 9.5 49.1 67 3.7 38.7 9.76 0.384
05:13 1024 30.24 853 25.19 9.7 49.5 66 3.8 38.8 9.95 0.392
05:14 1024 30.24 853 25.19 9.8 49.6 66 3.9 39 10.06 0.396
05:15 1024 30.24 853 25.19 9.8 49.6 66 3.7 38.7 10.07 0.396
05:16 1024 30.24 853 25.19 9.9 49.9 64 3.5 38.2 10.23 0.403
05:17 1024 30.24 853 25.19 10.3 50.5 63 3.5 38.4 10.56 0.416
05:18 1024 30.24 853 25.19 10.5 50.8 61 3.3 37.9 10.73 0.422
05:19 1024 30.24 853 25.19 10.7 51.3 61 3.5 38.3 11.02 0.434
05:20 1024 30.24 853 25.19 10.7 51.3 59 3 37.4 11.01 0.433
05:21 1024 30.24 853 25.19 11.1 52 57 3 37.3 11.37 0.448
05:22 1024 30.24 853 25.19 11.5 52.6 58 3.5 38.2 11.74 0.462
05:23 1024 30.24 853 25.19 11.4 52.5 59 3.7 38.7 11.7 0.461
05:24 1024 30.24 853 25.19 11.1 52 62 4.1 39.3 11.49 0.452
05:25 1024 30.24 853 25.19 10.7 51.3 63 4 39.3 11.13 0.438
05:26 1024 30.24 853 25.19 10.5 50.9 64 4 39.2 10.89 0.429
05:27 1024 30.24 853 25.19 10.3 50.6 65 4 39.2 10.73 0.422
05:28 1024 30.24 853 25.19 10.2 50.4 66 4.2 39.5 10.62 0.418
05:29 1024 30.24 853 25.19 10 50 66 3.9 39.1 10.41 0.41
05:30 1024 30.24 853 25.19 9.9 49.9 65 3.7 38.7 10.34 0.407
05:31 1024 30.24 853 25.19 10 50.1 65 3.7 38.7 10.41 0.41
05:32 1024 30.24 853 25.19 10.2 50.3 65 3.9 39 10.46 0.412
05:33 1024 30.24 853 25.19 10.1 50.1 65 3.9 39.1 10.4 0.409
05:34 1024 30.24 853 25.19 9.9 49.9 66 3.9 39.1 10.28 0.405
05:35 1024 30.24 853 25.19 9.7 49.5 67 4 39.2 10.14 0.399
05:36 1024 30.24 853 25.19 9.5 49.2 68 3.9 39.1 9.99 0.393
05:37 1024 30.24 853 25.19 9.6 49.2 67 3.7 38.7 9.98 0.393
05:38 1024 30.24 853 25.19 9.6 49.3 67 3.9 39.1 10 0.394
05:39 1024 30.24 853 25.19 9.6 49.3 67 3.9 39 9.96 0.392
05:40 1024 30.24 853 25.19 9.6 49.3 66 3.6 38.5 9.97 0.393
05:41 1024 30.24 853 25.19 9.9 49.9 62 3.1 37.5 10.24 0.403
05:42 1024 30.24 853 25.19 10.5 50.8 60 3 37.4 10.73 0.422
05:43 1024 30.24 853 25.19 10.9 51.7 59 3.3 38 11.11 0.437
05:44 1024 30.24 853 25.19 11 51.8 60 3.6 38.5 11.2 0.441
05:45 1024 30.24 853 25.19 10.8 51.5 61 3.7 38.6 11.09 0.437
05:46 1024 30.24 853 25.19 10.7 51.2 60 3.4 38.1 10.98 0.432
05:47 1024 30.24 853 25.19 10.7 51.3 60 3.3 37.9 11.02 0.434
05:48 1024 30.24 853 25.19 10.8 51.4 60 3.4 38.1 11.09 0.437
05:49 1024 30.24 853 25.19 10.7 51.2 61 3.5 38.3 11.04 0.435
05:50 1024 30.24 853 25.19 10.5 51 61 3.3 38 10.95 0.431
05:51 1024 30.24 853 25.19 10.4 50.8 62 3.4 38.2 10.79 0.425
05:52 1024 30.24 853 25.19 10.4 50.7 62 3.5 38.2 10.77 0.424
05:53 1024 30.24 853 25.19 10.3 50.5 62 3.5 38.2 10.67 0.42
05:54 1024 30.24 853 25.19 10.3 50.5 63 3.5 38.3 10.64 0.419
05:55 1024 30.24 853 25.19 10.2 50.4 63 3.5 38.4 10.56 0.416
05:56 1024 30.24 853 25.19 10.2 50.3 64 3.7 38.7 10.53 0.415
05:57 1024 30.24 853 25.19 10 49.9 66 3.8 38.9 10.4 0.409
05:58 1024 30.24 853 25.19 9.7 49.5 67 3.9 38.9 10.17 0.4
05:59 1024 30.24 853 25.19 9.5 49.1 67 3.8 38.8 10.02 0.394
06:00 1024 30.24 853 25.19 9.4 49 68 3.8 38.8 9.88 0.389
06:01 1024 30.24 853 25.19 9.4 48.8 68 3.7 38.7 9.8 0.386
06:02 1024 30.24 853 25.19 9.3 48.8 68 3.7 38.6 9.78 0.385
06:03 1024 30.24 853 25.19 9.3 48.8 68 3.7 38.7 9.75 0.384
06:04 1024 30.24 853 25.19 9.4 48.9 68 3.8 38.8 9.77 0.385
06:05 1024 30.24 853 25.19 9.4 49 68 3.7 38.7 9.76 0.384
06:06 1024 30.24 853 25.19 9.5 49.1 66 3.5 38.3 9.84 0.387
06:07 1024 30.24 853 25.19 9.7 49.5 65 3.4 38.1 10.05 0.396
06:08 1024 30.24 853 25.19 10 49.9 64 3.4 38.1 10.26 0.404
06:09 1024 30.24 853 25.19 10.1 50.1 63 3.5 38.3 10.38 0.409
06:10 1024 30.24 853 25.19 10.2 50.4 63 3.4 38.2 10.49 0.413
06:11 1024 30.24 853 25.19 10.3 50.6 63 3.6 38.4 10.57 0.416
06:12 1024 30.24 853 25.19 10.4 50.6 62 3.5 38.3 10.63 0.419
06:13 1024 30.24 853 25.19 10.4 50.8 62 3.6 38.5 10.68 0.42
06:14 1024 30.24 853 25.19 10.4 50.8 63 3.7 38.7 10.69 0.421
06:15 1024 30.24 853 25.19 10.4 50.6 64 3.9 39 10.67 0.42
06:16 1024 30.24 853 25.19 10.2 50.4 65 4 39.2 10.53 0.415
06:17 1024 30.24 853 25.19 10 50 66 4 39.2 10.32 0.406
06:18 1024 30.24 853 25.19 9.7 49.5 68 4.1 39.4 10.12 0.398
06:19 1024 30.24 853 25.19 9.5 49 69 4 39.2 9.9 0.39
06:20 1024 30.24 853 25.19 9.4 48.8 69 3.9 39 9.75 0.384
06:21 1024 30.24 853 25.19 9.4 49 70 4.2 39.6 9.8 0.386
06:22 1024 30.24 853 25.19 9.4 48.8 71 4.4 39.9 9.76 0.384
06:23 1024 30.24 853 25.19 9.2 48.5 72 4.3 39.7 9.59 0.378
06:24 1024 30.24 853 25.19 9.1 48.3 71 4.1 39.5 9.49 0.374
06:25 1024 30.24 853 25.19 9.1 48.4 71 4.2 39.6 9.51 0.374
06:26 1024 30.24 853 25.19 9.1 48.4 72 4.3 39.7 9.48 0.373
06:27 1024 30.24 853 25.19 9.1 48.3 72 4.3 39.7 9.46 0.372
06:28 1024 30.24 853 25.19 9.1 48.3 72 4.4 39.9 9.42 0.371
06:29 1024 30.24 853 25.19 8.9 48.1 73 4.4 39.9 9.34 0.368
06:30 1024 30.24 853 25.19 8.9 47.9 74 4.4 40 9.26 0.365
06:31 1024 30.24 853 25.19 8.8 47.8 74 4.3 39.8 9.12 0.359
06:32 1024 30.24 853 25.19 8.8 47.8 73 4.2 39.6 9.14 0.36
06:33 1024 30.24 853 25.19 8.9 47.9 72 4.1 39.4 9.2 0.362
06:34 1024 30.24 853 25.19 9.1 48.3 71 4.1 39.3 9.38 0.369
06:35 1024 30.24 853 25.19 9.3 48.8 70 4.1 39.4 9.62 0.379
06:36 1024 30.24 853 25.19 9.6 49.2 69 4.2 39.5 9.84 0.387
06:37 1024 30.24 853 25.19 9.7 49.5 68 4.2 39.6 10.02 0.394
06:38 1024 30.24 853 25.19 9.8 49.7 69 4.4 39.9 10.15 0.4
06:39 1024 30.24 853 25.19 9.9 49.8 68 4.2 39.6 10.19 0.401
06:40 1024 30.24 853 25.19 10 50 68 4.3 39.8 10.3 0.406
06:41 1024 30.24 853 25.19 10.1 50.1 68 4.5 40.1 10.41 0.41
06:42 1024 30.24 853 25.19 10.1 50.1 68 4.5 40.2 10.42 0.41
06:43 1024 30.24 853 25.19 10.1 50.1 69 4.6 40.2 10.44 0.411
06:44 1024 30.24 853 25.19 10.1 50.1 68 4.5 40.2 10.5 0.413
06:45 1024 30.24 853 25.19 10.1 50.2 68 4.6 40.2 10.53 0.415
06:46 1024 30.24 853 25.19 10.2 50.3 68 4.5 40.1 10.58 0.417
06:47 1024 30.24 853 25.19 10.3 50.6 67 4.4 39.9 10.75 0.423
06:48 1024 30.24 853 25.19 10.5 50.8 66 4.5 40.1 10.85 0.427
06:49 1024 30.24 853 25.19 10.6 51 66 4.5 40.1 10.98 0.432
06:50 1024 30.24 853 25.19 10.7 51.2 66 4.6 40.3 11.09 0.437
06:51 1024 30.24 853 25.19 10.7 51.3 67 4.8 40.6 11.18 0.44
06:52 1024 30.24 853 25.19 10.8 51.5 66 4.7 40.4 11.25 0.443
06:53 1024 30.24 853 25.19 10.9 51.6 66 4.9 40.8 11.36 0.447
06:54 1024 30.24 853 25.19 11 51.7 66 4.9 40.8 11.44 0.45
06:55 1024 30.24 853 25.19 11 51.8 66 4.9 40.8 11.5 0.453
06:56 1024 30.24 853 25.19 11.1 51.9 65 4.7 40.4 11.58 0.456
06:57 1024 30.24 853 25.19 11.2 52.1 64 4.6 40.3 11.69 0.46
06:58 1024 30.24 853 25.19 11.4 52.4 64 4.9 40.8 11.85 0.467
06:59 1024 30.24 853 25.19 11.5 52.7 63 4.9 40.7 11.97 0.471
07:00 1024 30.24 853 25.19 11.6 52.9 63 4.9 40.9 12.09 0.476
07:01 1024 30.24 853 25.19 11.8 53.2 62 4.8 40.6 12.26 0.483
07:02 1024 30.24 853 25.19 12 53.5 62 5 41 12.49 0.492
07:03 1024 30.24 853 25.19 12.1 53.8 61 5 41 12.6 0.496
07:04 1024 30.24 853 25.19 12.2 53.9 61 5 40.9 12.68 0.499
07:05 1024 30.24 853 25.19 12.2 53.9 59 4.4 39.9 12.7 0.5
07:06 1024 30.24 853 25.19 12.3 54.1 60 4.7 40.5 12.83 0.505
07:07 1024 30.24 853 25.19 12.5 54.5 58 4.4 40 12.96 0.51
07:08 1024 30.24 853 25.19 12.7 54.8 58 4.7 40.5 13.11 0.516
07:09 1024 30.24 853 25.19 12.7 54.8 58 4.7 40.4 13.13 0.517
07:10 1024 30.24 853 25.19 12.7 54.8 60 5.1 41.2 13.11 0.516
07:11 1024 30.24 853 25.19 12.6 54.6 61 5.2 41.4 13.02 0.513
07:12 1024 30.24 853 25.19 12.5 54.5 60 5 41 12.96 0.51
07:13 1024 30.24 853 25.19 12.5 54.4 60 5 40.9 12.91 0.508
07:14 1024 30.24 853 25.19 12.5 54.5 61 5.3 41.5 12.94 0.509
07:15 1024 30.24 853 25.19 12.5 54.5 61 5.2 41.3 12.95 0.51
07:16 1024 30.24 853 25.19 12.5 54.5 59 4.8 40.7 12.93 0.509
07:17 1024 30.24 853 25.19 12.6 54.7 59 4.9 40.8 12.96 0.51
07:18 1024 30.24 853 25.19 12.6 54.7 58 4.7 40.5 12.96 0.51
07:19 1024 30.24 853 25.19 12.7 54.8 59 4.9 40.8 13.05 0.514
07:20 1024 30.24 853 25.19 12.7 54.9 58 4.7 40.4 13.15 0.518
07:21 1024 30.24 853 25.19 12.9 55.2 57 4.7 40.4 13.26 0.522
07:22 1024 30.24 853 25.19 13 55.3 58 5.1 41.1 13.37 0.526
07:23 1024 30.24 853 25.19 13.1 55.5 59 5.2 41.4 13.48 0.531
07:24 1024 30.24 853 25.19 13.1 55.5 61 5.8 42.4 13.48 0.531
07:25 1024 30.24 853 25.19 13.1 55.5 61 5.8 42.5 13.49 0.531
07:26 1024 30.24 853 25.19 13 55.4 63 6.1 43 13.5 0.531
07:27 1024 30.24 853 25.19 13 55.3 63 6.2 43.1 13.45 0.53
07:28 1024 30.24 853 25.19 12.9 55.3 64 6.3 43.3 13.42 0.528
07:29 1024 30.24 853 25.19 12.9 55.3 63 6.2 43.1 13.4 0.528
07:30 1024 30.24 853 25.19 13 55.3 63 6.2 43.1 13.45 0.53
07:31 1024 30.24 853 25.19 13 55.4 63 6.1 42.9 13.49 0.531
07:32 1024 30.24 853 25.19 13.1 55.5 63 6.2 43.2 13.54 0.533
07:33 1024 30.24 853 25.19 13.2 55.7 63 6.3 43.4 13.66 0.538
07:34 1024 30.24 853 25.19 13.3 55.9 60 5.7 42.3 13.79 0.543
07:35 1024 30.24 853 25.19 13.4 56.1 60 5.7 42.3 13.88 0.546
07:36 1024 30.24 853 25.19 13.5 56.3 62 6.4 43.5 14.02 0.552
07:37 1024 30.24 853 25.19 13.7 56.6 60 6.2 43.1 14.18 0.558
07:38 1024 30.24 853 25.19 13.8 56.9 60 6.3 43.3 14.37 0.566
07:39 1024 30.24 853 25.19 14 57.1 60 6.4 43.5 14.58 0.574
07:40 1024 30.24 853 25.19 14.2 57.5 62 7.1 44.7 14.83 0.584
07:41 1024 30.24 853 25.19 14.3 57.8 59 6.6 43.9 15.05 0.593
07:42 1024 30.24 853 25.19 14.5 58.1 61 7.1 44.9 15.25 0.6
07:43 1024 30.24 853 25.19 14.6 58.3 61 7.2 44.9 15.47 0.609
07:44 1024 30.24 853 25.19 14.7 58.5 55 5.9 42.6 15.55 0.612
07:45 1024 30.24 853 25.19 14.8 58.7 57 6.5 43.6 15.55 0.612
07:46 1024 30.24 853 25.19 14.9 58.7 58 6.8 44.2 15.55 0.612
07:47 1024 30.24 853 25.19 14.9 58.9 57 6.6 44 15.62 0.615
07:48 1024 30.24 853 25.19 15 59 58 6.9 44.5 15.74 0.62
07:49 1024 30.24 853 25.19 15.1 59.1 55 6.2 43.2 15.84 0.624
07:50 1024 30.24 853 25.19 15.1 59.1 56 6.4 43.6 15.91 0.626
07:51 1024 30.24 853 25.19 15.2 59.3 54 6.1 42.9 16 0.63
07:52 1024 30.24 853 25.19 15.2 59.4 59 7.3 45.1 16.07 0.633
07:53 1024 30.24 853 25.19 15.3 59.5 54 6.2 43.2 16.28 0.641
07:54 1024 30.24 853 25.19 15.4 59.8 55 6.5 43.7 16.33 0.643
07:55 1024 30.24 853 25.19 15.5 59.9 52 5.8 42.5 16.41 0.646
07:56 1024 30.24 853 25.19 15.6 60.1 52 5.9 42.6 16.56 0.652
07:57 1024 30.24 853 25.19 15.7 60.3 54 6.5 43.7 16.68 0.657
07:58 1024 30.24 853 25.19 15.8 60.4 54 6.6 43.8 16.75 0.659
07:59 1024 30.24 853 25.19 15.9 60.6 55 6.9 44.4 16.83 0.663
08:00 1024 30.24 853 25.19 16 60.8 54 6.7 44.1 16.96 0.668
08:01 1024 30.24 853 25.19 16 60.9 56 7.3 45.2 16.94 0.667
08:02 1024 30.24 853 25.19 16.2 61.1 55 7.3 45.2 17.02 0.67
08:03 1024 30.24 853 25.19 16.2 61.2 52 6.6 43.8 17.11 0.674
08:04 1024 30.24 853 25.19 16.3 61.3 50 6 42.9 17.18 0.676
08:05 1024 30.24 853 25.19 16.3 61.3 51 6.1 43 17.21 0.678
08:06 1024 30.24 853 25.19 16.3 61.4 52 6.6 43.9 17.2 0.677
08:07 1024 30.24 853 25.19 16.3 61.4 53 6.8 44.3 17.23 0.678
08:08 1024 30.24 853 25.19 16.4 61.5 51 6.4 43.6 17.33 0.682
08:09 1024 30.24 853 25.19 16.4 61.6 54 7.2 44.9 17.43 0.686
08:10 1024 30.24 853 25.19 16.5 61.7 48 5.6 42.1 17.5 0.689
08:11 1024 30.24 853 25.19 16.5 61.7 49 6 42.8 17.53 0.69
08:12 1024 30.24 853 25.19 16.6 61.8 50 6.3 43.4 17.63 0.694
08:13 1024 30.24 853 25.19 16.7 62.1 48 5.7 42.2 17.72 0.698
08:14 1024 30.24 853 25.19 16.8 62.2 50 6.4 43.5 17.77 0.7
08:15 1024 30.24 853 25.19 16.8 62.3 51 6.9 44.4 17.86 0.703
08:16 1024 30.24 853 25.19 16.9 62.4 52 7 44.6 17.92 0.706
08:17 1024 30.24 853 25.19 17 62.5 51 6.9 44.4 17.99 0.708
08:18 1024 30.24 853 25.19 17 62.6 55 8 46.5 18.08 0.712
08:19 1024 30.24 853 25.19 17.1 62.8 54 7.8 46.1 18.16 0.715
08:20 1024 30.24 853 25.19 17.2 63 50 6.8 44.3 18.24 0.718
08:21 1024 30.24 853 25.19 17.3 63.1 52 7.3 45.1 18.3 0.72
08:22 1024 30.24 853 25.19 17.3 63.2 53 7.8 46.1 18.34 0.722
08:23 1024 30.24 853 25.19 17.4 63.3 47 6.2 43.2 18.37 0.723
08:24 1024 30.24 853 25.19 17.4 63.3 50 7 44.7 18.37 0.723
08:25 1024 30.24 853 25.19 17.4 63.4 45 5.6 42.1 18.36 0.723
08:26 1024 30.24 853 25.19 17.4 63.4 51 7.3 45.1 18.34 0.722
08:27 1024 30.24 853 25.19 17.5 63.4 45 5.5 41.9 18.39 0.724
08:28 1024 30.24 853 25.19 17.6 63.6 49 6.9 44.4 18.45 0.726
08:29 1024 30.24 853 25.19 17.7 63.8 48 6.7 44 18.58 0.731
08:30 1024 30.24 853 25.19 17.8 64 44 5.5 41.8 18.65 0.734
08:31 1024 30.24 853 25.19 17.8 64.1 51 7.8 46 18.77 0.739
08:32 1024 30.24 853 25.19 17.9 64.3 49 7.1 44.8 18.86 0.743
08:33 1024 30.24 853 25.19 18 64.4 47 6.7 44.1 18.81 0.741
08:34 1024 30.24 853 25.19 18.1 64.5 48 6.9 44.5 18.78 0.739
08:35 1024 30.24 853 25.19 18.2 64.7 49 7.5 45.5 18.83 0.741
08:36 1024 30.24 853 25.19 18.3 64.9 51 8 46.4 18.94 0.746
08:37 1024 30.24 853 25.19 18.5 65.2 46 6.8 44.2 19.05 0.75
08:38 1024 30.24 853 25.19 18.6 65.4 41 5.3 41.5 19.15 0.754
08:39 1024 30.24 853 25.19 18.7 65.7 41 5.3 41.5 19.18 0.755
08:40 1024 30.24 853 25.19 18.8 65.8 41 5.5 42 19.29 0.759
08:41 1024 30.24 853 25.19 18.9 66 42 5.7 42.2 19.4 0.764
08:42 1024 30.24 853 25.19 19 66.2 36 3.8 38.8 19.55 0.77
08:43 1024 30.24 853 25.19 19.1 66.4 37 4.2 39.6 19.61 0.772
08:44 1024 30.24 853 25.19 19.2 66.6 39 5 40.9 19.79 0.779
08:45 1024 30.24 853 25.19 19.5 67.1 40 5.7 42.2 20.09 0.791
08:46 1024 30.24 853 25.19 19.7 67.4 35 4.1 39.4 20.27 0.798
08:47 1024 30.24 853 25.19 19.7 67.4 38 5.2 41.4 20.22 0.796
08:48 1024 30.24 853 25.19 19.6 67.4 40 5.8 42.4 20.17 0.794
08:49 1024 30.24 853 25.19 19.7 67.4 45 7.6 45.7 20.23 0.796
08:50 1024 30.24 853 25.19 19.7 67.4 38 5 41 20.24 0.797
08:51 1024 30.24 853 25.19 19.6 67.4 41 6 42.8 20.19 0.795
08:52 1024 30.24 853 25.19 19.6 67.3 40 5.9 42.6 20.22 0.796
08:53 1024 30.24 853 25.19 19.6 67.2 45 7.4 45.3 20.13 0.793
08:54 1024 30.24 853 25.19 19.6 67.2 39 5.2 41.4 20.11 0.792
08:55 1024 30.24 853 25.19 19.6 67.2 42 6.5 43.6 20.05 0.789
08:56 1024 30.24 853 25.19 19.6 67.2 42 6.6 43.9 20.11 0.792
08:57 1024 30.24 853 25.19 19.6 67.3 44 7.1 44.8 20.11 0.792
08:58 1024 30.24 853 25.19 19.6 67.3 45 7.6 45.6 20.17 0.794
08:59 1024 30.24 853 25.19 19.7 67.5 42 6.5 43.8 20.18 0.794
09:00 1024 30.24 853 25.19 19.8 67.6 40 5.8 42.5 20.19 0.795
09:01 1024 30.24 853 25.19 19.8 67.6 41 6.4 43.5 20.24 0.797
09:02 1024 30.24 853 25.19 19.8 67.7 47 8.3 47 20.29 0.799
09:03 1024 30.24 853 25.19 19.9 67.9 40 6.1 43 20.36 0.802
09:04 1024 30.24 853 25.19 20 67.9 37 5.2 41.3 20.42 0.804
09:05 1024 30.24 853 25.19 20.1 68.1 40 6.2 43.2 20.56 0.809
09:06 1024 30.24 853 25.19 20.3 68.5 41 6.6 43.9 20.77 0.818
09:07 1024 30.24 853 25.19 20.5 68.9 39 6.1 43 21.03 0.828
09:08 1024 30.24 853 25.19 20.6 69.1 34 4.3 39.8 21.11 0.831
09:09 1024 30.24 853 25.19 20.7 69.2 32 3.4 38.1 21.2 0.835
09:10 1024 30.24 853 25.19 20.8 69.4 33 4 39.2 21.33 0.84
09:11 1024 30.24 853 25.19 21 69.7 32 3.7 38.7 21.44 0.844
09:12 1024 30.24 853 25.19 21.2 70.1 29 2.9 37.2 21.67 0.853
09:13 1024 30.24 853 25.19 21.4 70.4 38 6.6 44 21.86 0.861
09:14 1024 30.24 853 25.19 21.5 70.8 30 3.6 38.5 21.93 0.863
09:15 1024 30.24 853 25.19 21.7 71 30 3.7 38.7 21.92 0.863
09:16 1024 30.24 853 25.19 21.8 71.2 29 3.1 37.6 21.89 0.862
09:17 1024 30.24 853 25.19 21.8 71.3 29 3.4 38.1 21.8 0.858
09:18 1024 30.24 853 25.19 21.8 71.2 27 2.1 35.8 21.8 0.858
09:19 1024 30.24 853 25.19 21.8 71.3 28 2.9 37.3 21.8 0.858
09:20 1024 30.24 853 25.19 21.9 71.4 29 3.2 37.7 22.02 0.867
09:21 1024 30.24 853 25.19 22.1 71.8 34 5.9 42.5 22.28 0.877
09:22 1024 30.24 853 25.19 22.3 72.1 32 5 41.1 22.53 0.887
09:23 1024 30.24 853 25.19 22.2 71.9 31 4.3 39.7 22.44 0.883
09:24 1024 30.24 853 25.19 22 71.7 30 3.9 39 22.4 0.882
09:25 1024 30.24 853 25.19 22 71.6 29 3.4 38.2 22.33 0.879
09:26 1024 30.24 853 25.19 21.9 71.4 32 4.5 40.2 22.28 0.877
09:27 1024 30.24 853 25.19 21.9 71.4 33 4.9 40.9 22.26 0.876
09:28 1024 30.24 853 25.19 21.8 71.3 36 6.3 43.3 22.19 0.874
09:29 1024 30.24 853 25.19 21.9 71.4 31 4.1 39.5 22.21 0.874
09:30 1024 30.24 853 25.19 21.9 71.3 29 3.4 38.2 22.18 0.873
09:31 1024 30.24 853 25.19 21.8 71.3 33 5 41 22.17 0.873
09:32 1024 30.24 853 25.19 21.8 71.3 34 5.6 42 22.2 0.874
09:33 1024 30.24 853 25.19 21.9 71.4 31 4.1 39.4 22.16 0.872
09:34 1024 30.24 853 25.19 21.9 71.3 30 3.9 39 22.06 0.869
09:35 1024 30.24 853 25.19 21.8 71.2 30 3.7 38.7 22 0.866
09:36 1024 30.24 853 25.19 21.7 71.1 31 4.2 39.5 21.99 0.866
09:37 1024 30.24 853 25.19 21.7 71.1 37 6.8 44.2 21.99 0.866
09:38 1024 30.24 853 25.19 21.7 71.1 40 7.7 45.8 21.94 0.864
09:39 1024 30.24 853 25.19 21.7 71 37 6.5 43.7 21.74 0.856
09:40 1024 30.24 853 25.19 21.5 70.6 38 6.6 43.9 21.49 0.846
09:41 1024 30.24 853 25.19 21.4 70.4 43 8.5 47.2 21.39 0.842
09:42 1024 30.24 853 25.19 21.4 70.4 39 7 44.6 21.33 0.84
09:43 1024 30.24 853 25.19 21.3 70.3 40 7.3 45.2 21.33 0.84
09:44 1024 30.24 853 25.19 21.3 70.3 37 6.4 43.5 21.33 0.84
09:45 1024 30.24 853 25.19 21.3 70.3 38 6.6 43.8 21.27 0.837
09:46 1023 30.21 853 25.19 21.2 70.1 41 7.6 45.8 21.23 0.836
09:47 1023 30.21 853 25.19 21 69.8 37 6.1 42.9 21.02 0.828
09:48 1024 30.24 853 25.19 20.9 69.6 43 8.1 46.5 21 0.827
09:49 1024 30.24 853 25.19 20.9 69.6 38 6.1 43 21.11 0.831
09:50 1024 30.24 853 25.19 21 69.8 38 6.1 43 21.14 0.832
09:51 1024 30.24 853 25.19 21 69.8 40 7 44.6 21.2 0.835
09:52 1023 30.21 853 25.19 21.1 69.9 40 7.2 44.9 21.24 0.836
09:53 1023 30.21 853 25.19 21.2 70.1 39 7 44.6 21.32 0.839
09:54 1023 30.21 853 25.19 21.2 70.1 41 7.5 45.5 21.31 0.839
09:55 1024 30.24 853 25.19 21.2 70.1 36 5.9 42.6 21.34 0.84
09:56 1024 30.24 853 25.19 21.2 70.2 40 7.3 45.2 21.47 0.845
09:57 1024 30.24 853 25.19 21.3 70.4 37 6.3 43.3 21.52 0.847
09:58 1023 30.21 853 25.19 21.4 70.6 34 5.1 41.2 21.59 0.85
09:59 1024 30.24 853 25.19 21.4 70.6 35 5.7 42.2 21.51 0.847
10:00 1024 30.24 853 25.19 21.4 70.5 35 5.4 41.8 21.46 0.845
10:01 1023 30.21 853 25.19 21.3 70.3 35 5.5 42 21.33 0.84
10:02 1023 30.21 853 25.19 21.2 70.1 39 6.8 44.3 21.29 0.838
10:03 1023 30.21 853 25.19 21.3 70.3 34 4.8 40.6 21.44 0.844
10:04 1023 30.21 853 25.19 21.3 70.3 39 6.9 44.4 21.41 0.843
10:05 1023 30.21 853 25.19 21.3 70.4 36 5.8 42.5 21.51 0.847
10:06 1023 30.21 853 25.19 21.5 70.6 36 5.8 42.4 21.56 0.849
10:07 1023 30.21 853 25.19 21.5 70.6 39 7 44.6 21.63 0.852
10:08 1023 30.21 853 25.19 21.7 71 41 8.1 46.5 21.81 0.859
10:09 1023 30.21 853 25.19 21.8 71.2 34 5.4 41.7 21.9 0.862
10:10 1023 30.21 853 25.19 21.8 71.2 35 5.8 42.5 21.99 0.866
10:11 1023 30.21 853 25.19 21.9 71.4 38 7.2 45 22.07 0.869
10:12 1023 30.21 853 25.19 22.1 71.8 36 6.6 43.9 22.2 0.874
10:13 1023 30.21 853 25.19 22.3 72.1 38 7.5 45.5 22.36 0.88
10:14 1023 30.21 853 25.19 22.4 72.3 33 5.7 42.2 22.57 0.889
10:15 1023 30.21 853 25.19 22.3 72.1 36 6.8 44.2 22.6 0.89
10:16 1023 30.21 853 25.19 22.3 72.1 41 8.7 47.6 22.56 0.888
10:17 1023 30.21 853 25.19 22.3 72.2 36 6.6 43.8 22.59 0.889
10:18 1023 30.21 853 25.19 22.2 71.9 36 6.4 43.6 22.46 0.884
10:19 1023 30.21 853 25.19 22.1 71.8 38 7.2 44.9 22.49 0.885
10:20 1023 30.21 853 25.19 22.3 72.1 34 5.9 42.7 22.57 0.889
10:21 1023 30.21 853 25.19 22.4 72.2 34 6.1 43 22.5 0.886
10:22 1023 30.21 853 25.19 22.4 72.3 39 8 46.5 22.4 0.882
10:23 1023 30.21 853 25.19 22.4 72.3 36 6.7 44.1 22.51 0.886
10:24 1023 30.21 853 25.19 22.5 72.4 42 9.1 48.3 22.5 0.886
10:25 1023 30.21 853 25.19 22.5 72.5 40 8.2 46.8 22.65 0.892
10:26 1023 30.21 853 25.19 22.5 72.6 38 7.7 45.9 22.68 0.893
10:27 1023 30.21 853 25.19 22.4 72.3 33 5.8 42.4 22.57 0.889
10:28 1023 30.21 853 25.19 22.3 72.1 38 7.5 45.5 22.51 0.886
10:29 1023 30.21 853 25.19 22.3 72.2 36 6.8 44.2 22.63 0.891
10:30 1023 30.21 853 25.19 22.4 72.2 45 10 50 22.65 0.892
10:31 1023 30.21 853 25.19 22.4 72.4 39 7.9 46.3 22.78 0.897
10:32 1023 30.21 853 25.19 22.4 72.4 36 6.8 44.2 22.74 0.895
10:33 1023 30.21 853 25.19 22.3 72.1 37 7.2 45 22.64 0.891
10:34 1023 30.21 853 25.19 22.3 72.1 40 8.3 46.9 22.64 0.891
10:35 1023 30.21 853 25.19 22.3 72.1 42 8.9 48 22.59 0.889
10:36 1023 30.21 853 25.19 22.4 72.3 41 8.5 47.3 22.61 0.89
10:37 1023 30.21 853 25.19 22.4 72.3 37 7.4 45.3 22.63 0.891
10:38 1023 30.21 853 25.19 22.4 72.3 39 7.9 46.2 22.5 0.886
10:39 1023 30.21 853 25.19 22.4 72.2 37 7 44.6 22.55 0.888
10:40 1023 30.21 853 25.19 22.5 72.4 41 8.9 48 22.61 0.89
10:41 1023 30.21 852 25.16 22.5 72.4 34 6.2 43.2 22.65 0.892
10:42 1023 30.21 853 25.19 22.3 72.2 38 7.5 45.5 22.59 0.889
10:43 1023 30.21 853 25.19 22.4 72.4 39 8 46.4 22.72 0.894
10:44 1023 30.21 852 25.16 22.5 72.5 43 9.6 49.2 22.77 0.896
10:45 1023 30.21 852 25.16 22.6 72.7 41 8.7 47.7 22.78 0.897
10:46 1023 30.21 852 25.16 22.5 72.6 41 8.7 47.7 22.76 0.896
10:47 1023 30.21 852 25.16 22.5 72.5 43 9.3 48.8 22.84 0.899
10:48 1023 30.21 852 25.16 22.6 72.7 45 10.3 50.6 22.9 0.902
10:49 1023 30.21 852 25.16 22.6 72.7 42 9.3 48.8 22.9 0.902
10:50 1023 30.21 852 25.16 22.4 72.4 42 9.1 48.4 22.72 0.894
10:51 1023 30.21 852 25.16 22.3 72.1 43 9.2 48.6 22.59 0.889
10:52 1023 30.21 852 25.16 22.4 72.2 43 9.3 48.8 22.62 0.891
10:53 1023 30.21 852 25.16 22.5 72.5 47 10.8 51.4 22.78 0.897
10:54 1023 30.21 852 25.16 22.7 72.8 42 9.4 49 22.93 0.903
10:55 1023 30.21 852 25.16 22.7 72.9 36 7 44.7 22.92 0.902
10:56 1023 30.21 852 25.16 22.6 72.6 40 8.3 47 22.9 0.902
10:57 1023 30.21 852 25.16 22.7 72.8 44 9.8 49.7 22.87 0.9
10:58 1023 30.21 852 25.16 22.8 73 36 7 44.6 22.95 0.904
10:59 1023 30.21 852 25.16 22.9 73.1 38 8 46.4 23 0.906
11:00 1023 30.21 852 25.16 22.9 73.2 39 8.4 47.2 22.97 0.904
11:01 1023 30.21 852 25.16 23 73.4 45 10.5 50.9 23.11 0.91
11:02 1023 30.21 852 25.16 23.1 73.6 38 8.2 46.7 23.24 0.915
11:03 1023 30.21 852 25.16 23.2 73.7 39 8.7 47.6 23.2 0.913
11:04 1023 30.21 852 25.16 23.2 73.7 41 9.4 48.9 23.24 0.915
11:05 1023 30.21 852 25.16 23.1 73.6 42 9.7 49.5 23.27 0.916
11:06 1023 30.21 852 25.16 23.2 73.7 38 8.3 46.9 23.33 0.919
11:07 1023 30.21 852 25.16 23.1 73.5 38 8 46.4 23.22 0.914
11:08 1023 30.21 852 25.16 22.8 73.1 37 7.7 45.8 23.09 0.909
11:09 1023 30.21 852 25.16 22.8 73.1 45 10.3 50.6 23.07 0.908
11:10 1023 30.21 852 25.16 22.9 73.3 41 9.3 48.8 23.23 0.915
11:11 1023 30.21 852 25.16 22.9 73.3 42 9.6 49.2 23.24 0.915
11:12 1023 30.21 852 25.16 23 73.3 39 8.3 47 23.3 0.917
11:13 1023 30.21 852 25.16 23 73.4 39 8.3 47 23.27 0.916
11:14 1023 30.21 852 25.16 22.9 73.2 37 7.7 45.9 23.22 0.914
11:15 1023 30.21 852 25.16 22.8 73.1 41 8.9 48.1 23.21 0.914
11:16 1023 30.21 852 25.16 23 73.3 34 6.6 43.9 23.27 0.916
11:17 1023 30.21 852 25.16 22.9 73.3 37 7.5 45.5 23.2 0.913
11:18 1023 30.21 852 25.16 22.9 73.3 39 8.5 47.2 23.19 0.913
11:19 1023 30.21 852 25.16 23 73.4 36 7.4 45.3 23.25 0.915
11:20 1023 30.21 852 25.16 23.1 73.5 39 8.4 47.2 23.33 0.919
11:21 1023 30.21 852 25.16 23.1 73.6 36 7.4 45.2 23.42 0.922
11:22 1023 30.21 852 25.16 23.2 73.7 41 9.5 49.1 23.51 0.926
11:23 1023 30.21 852 25.16 23.3 73.9 34 6.6 43.8 23.58 0.928
11:24 1023 30.21 852 25.16 23.4 74.1 36 7.7 45.9 23.57 0.928
11:25 1023 30.21 852 25.16 23.4 74.2 33 6.4 43.5 23.63 0.93
11:26 1023 30.21 852 25.16 23.3 74 33 6.5 43.7 23.61 0.93
11:27 1023 30.21 852 25.16 23.2 73.7 35 7.2 45 23.51 0.926
11:28 1023 30.21 852 25.16 23.2 73.8 36 7.6 45.8 23.61 0.93
11:29 1023 30.21 852 25.16 23.2 73.8 34 6.7 44 23.54 0.927
11:30 1023 30.21 852 25.16 23.1 73.6 34 6.8 44.3 23.43 0.922
11:31 1023 30.21 852 25.16 23.1 73.6 32 5.7 42.3 23.46 0.924
11:32 1023 30.21 852 25.16 23.1 73.7 31 5.3 41.6 23.53 0.926
11:33 1023 30.21 852 25.16 23.3 73.9 38 8.4 47 23.66 0.931
11:34 1023 30.21 852 25.16 23.3 73.9 31 5.6 42.2 23.65 0.931
11:35 1023 30.21 852 25.16 23.2 73.8 37 7.8 46 23.63 0.93
11:36 1023 30.21 852 25.16 23.3 74 36 7.5 45.4 23.6 0.929
11:37 1023 30.21 852 25.16 23.4 74.1 38 8.4 47.1 23.71 0.933
11:38 1023 30.21 852 25.16 23.5 74.3 35 7.3 45.2 23.84 0.939
11:39 1023 30.21 852 25.16 23.5 74.3 31 5.7 42.3 23.83 0.938
11:40 1023 30.21 852 25.16 23.5 74.3 35 7.3 45.2 23.82 0.938
11:41 1023 30.21 852 25.16 23.6 74.5 35 7.5 45.4 23.92 0.942
11:42 1023 30.21 852 25.16 23.6 74.4 35 7.6 45.8 23.92 0.942
11:43 1023 30.21 852 25.16 23.7 74.6 35 7.6 45.7 24.04 0.946
11:44 1023 30.21 852 25.16 23.7 74.7 33 6.6 44 24.1 0.949
11:45 1023 30.21 852 25.16 23.8 74.8 39 9.2 48.6 24.17 0.952
11:46 1023 30.21 852 25.16 23.9 75 36 8 46.4 24.26 0.955
11:47 1023 30.21 852 25.16 24.1 75.4 34 7.4 45.4 24.31 0.957
11:48 1023 30.21 852 25.16 24.2 75.5 31 6.4 43.5 24.35 0.959
11:49 1023 30.21 852 25.16 24.2 75.6 32 6.6 43.9 24.34 0.958
11:50 1023 30.21 852 25.16 24.3 75.7 31 6.5 43.7 24.42 0.961
11:51 1023 30.21 852 25.16 24.3 75.7 33 7.1 44.8 24.47 0.963
11:52 1023 30.21 852 25.16 24.4 75.9 36 8.5 47.4 24.57 0.967
11:53 1023 30.21 852 25.16 24.5 76.1 33 7.5 45.4 24.53 0.966
11:54 1023 30.21 852 25.16 24.5 76.2 33 7.7 45.8 24.62 0.969
11:55 1023 30.21 852 25.16 24.5 76 31 6.4 43.5 24.51 0.965
11:56 1023 30.21 852 25.16 24.3 75.8 32 6.8 44.3 24.31 0.957
11:57 1023 30.21 852 25.16 24.2 75.6 33 7.2 45 24.26 0.955
11:58 1023 30.21 852 25.16 24.3 75.7 36 8.5 47.3 24.34 0.958
11:59 1023 30.21 852 25.16 24.4 75.8 32 6.8 44.2 24.48 0.964
12:00 1023 30.21 852 25.16 24.4 76 31 6.3 43.4 24.72 0.973
12:01 1023 30.21 852 25.16 24.6 76.2 33 7.3 45.1 24.93 0.981
12:02 1023 30.21 852 25.16 24.7 76.4 35 8.5 47.2 25.17 0.991
12:03 1023 30.21 852 25.16 24.8 76.6 30 6.2 43.2 25.22 0.993
12:04 1023 30.21 852 25.16 24.8 76.7 34 8 46.4 25.13 0.989
12:05 1023 30.21 852 25.16 24.9 76.8 34 8.1 46.6 25.15 0.99
12:06 1023 30.21 852 25.16 24.9 76.7 30 6.3 43.3 25.16 0.991
12:07 1023 30.21 852 25.16 24.7 76.5 31 6.5 43.7 25.09 0.988
12:08 1023 30.21 852 25.16 24.7 76.5 38 9.8 49.6 25.13 0.989
12:09 1023 30.21 852 25.16 24.8 76.6 33 7.8 46 25.26 0.994
12:10 1023 30.21 852 25.16 24.8 76.6 31 6.8 44.2 25.15 0.99
12:11 1023 30.21 852 25.16 24.8 76.6 37 9.3 48.8 25.23 0.993
12:12 1023 30.21 852 25.16 24.9 76.8 33 7.5 45.6 25.23 0.993
12:13 1023 30.21 852 25.16 25 76.9 33 7.7 45.9 25.18 0.991
12:14 1023 30.21 852 25.16 25 77 37 9.4 49 25.16 0.991
12:15 1023 30.21 852 25.16 25.1 77.2 32 7.3 45.1 25.18 0.991
12:16 1022 30.18 852 25.16 25.2 77.3 35 9 48.2 25.35 0.998
12:17 1022 30.18 852 25.16 25.3 77.5 33 7.9 46.3 25.4 1
12:18 1022 30.18 852 25.16 25.4 77.6 32 7.8 46 25.34 0.998
12:19 1022 30.18 852 25.16 25.4 77.8 33 8 46.4 25.47 1.003
12:20 1022 30.18 852 25.16 25.6 78.1 30 7 44.6 25.66 1.01
12:21 1022 30.18 852 25.16 25.7 78.3 34 9 48.2 25.79 1.015
12:22 1022 30.18 852 25.16 25.8 78.4 29 6.9 44.3 25.83 1.017
12:23 1022 30.18 852 25.16 25.7 78.2 33 8.6 47.5 25.69 1.011
12:24 1022 30.18 852 25.16 25.6 78 33 8.4 47.1 25.63 1.009
12:25 1022 30.18 852 25.16 25.7 78.2 31 7.6 45.6 25.73 1.013
12:26 1022 30.18 852 25.16 25.7 78.3 31 7.7 45.8 25.88 1.019
12:27 1022 30.18 852 25.16 25.7 78.3 31 7.8 46 25.81 1.016
12:28 1022 30.18 852 25.16 25.7 78.2 31 7.7 45.8 25.68 1.011
12:29 1022 30.18 852 25.16 25.6 78.1 32 8 46.3 25.72 1.013
12:30 1022 30.18 852 25.16 25.5 77.8 33 8 46.5 25.58 1.007
12:31 1022 30.18 852 25.16 25.3 77.5 32 7.7 45.8 25.53 1.005
12:32 1022 30.18 851 25.13 25.2 77.4 33 8 46.4 25.53 1.005
12:33 1022 30.18 851 25.13 25.3 77.6 32 7.5 45.6 25.66 1.01
12:34 1022 30.18 851 25.13 25.4 77.6 29 6.5 43.7 25.72 1.013
12:35 1022 30.18 851 25.13 25.3 77.5 33 8.2 46.7 25.75 1.014
12:36 1022 30.18 851 25.13 25.3 77.6 30 7 44.5 25.8 1.016
12:37 1022 30.18 851 25.13 25.2 77.4 31 7.2 45 25.75 1.014
12:38 1022 30.18 851 25.13 25.3 77.6 35 9 48.2 25.83 1.017
12:39 1022 30.18 851 25.13 25.5 77.9 29 6.7 44 26.02 1.024
12:40 1022 30.18 851 25.13 25.6 78 33 8.2 46.8 26.11 1.028
12:41 1022 30.18 851 25.13 25.7 78.3 33 8.3 47 26.22 1.032
12:42 1022 30.18 851 25.13 25.8 78.4 35 9.3 48.8 26.26 1.034
12:43 1022 30.18 851 25.13 26 78.7 29 6.9 44.4 26.38 1.039
12:44 1022 30.18 851 25.13 26 78.8 33 8.5 47.4 26.4 1.039
12:45 1022 30.18 851 25.13 26 78.8 30 7.2 45 26.41 1.04
12:46 1022 30.18 851 25.13 26.2 79.1 32 8.4 47 26.49 1.043
12:47 1022 30.18 851 25.13 26.3 79.3 33 9.2 48.5 26.68 1.05
12:48 1022 30.18 851 25.13 26.4 79.6 32 8.6 47.5 26.72 1.052
12:49 1022 30.18 851 25.13 26.5 79.7 31 8.3 46.9 26.72 1.052
12:50 1022 30.18 851 25.13 26.4 79.6 33 9 48.2 26.68 1.05
12:51 1022 30.18 851 25.13 26.4 79.4 30 7.5 45.5 26.58 1.046
12:52 1022 30.18 851 25.13 26.2 79.1 29 7.2 45 26.45 1.041
12:53 1022 30.18 851 25.13 26.1 78.9 29 6.9 44.4 26.39 1.039
12:54 1022 30.18 851 25.13 25.9 78.7 30 7.5 45.5 26.28 1.035
12:55 1022 30.18 851 25.13 26 78.7 30 7.5 45.4 26.42 1.04
12:56 1022 30.18 851 25.13 26 78.7 28 6.5 43.7 26.36 1.038
12:57 1022 30.18 851 25.13 25.9 78.7 31 7.9 46.1 26.32 1.036
12:58 1022 30.18 851 25.13 26 78.7 32 8.2 46.8 26.35 1.037
12:59 1022 30.18 851 25.13 26 78.8 29 7 44.6 26.44 1.041
13:00 1022 30.18 851 25.13 26.1 79 31 7.8 46.1 26.54 1.045
13:01 1022 30.18 851 25.13 26.2 79.2 30 7.5 45.6 26.58 1.046
13:02 1022 30.18 851 25.13 26.4 79.5 31 8.2 46.8 26.66 1.05
13:03 1022 30.18 851 25.13 26.6 79.8 29 7.2 45 26.83 1.056
13:04 1022 30.18 851 25.13 26.6 79.9 27 6.4 43.6 26.8 1.055
13:05 1022 30.18 851 25.13 26.7 80 27 6.6 43.9 26.89 1.059
13:06 1022 30.18 851 25.13 26.7 80 28 6.8 44.2 26.89 1.059
13:07 1022 30.18 851 25.13 26.7 80 28 6.9 44.5 26.78 1.054
13:08 1022 30.18 851 25.13 26.6 79.9 30 7.7 45.9 26.76 1.054
13:09 1022 30.18 851 25.13 26.7 80.1 27 6.3 43.4 26.84 1.057
13:10 1022 30.18 851 25.13 26.8 80.2 28 7.1 44.7 27.01 1.063
13:11 1022 30.18 851 25.13 27 80.5 32 9 48.1 27.21 1.071
13:12 1022 30.18 851 25.13 27.1 80.8 26 6.4 43.4 27.39 1.078
13:13 1022 30.18 851 25.13 27.2 80.9 25 6 42.8 27.44 1.08
13:14 1022 30.18 851 25.13 27.3 81.1 28 7.6 45.6 27.43 1.08
13:15 1022 30.18 851 25.13 27.3 81.1 29 8.1 46.6 27.5 1.083
13:16 1022 30.18 851 25.13 27.4 81.3 26 6.5 43.7 27.65 1.089
13:17 1022 30.18 851 25.13 27.5 81.5 32 9.5 49 27.7 1.091
13:18 1022 30.18 851 25.13 27.6 81.6 29 8.1 46.5 27.77 1.093
13:19 1022 30.18 851 25.13 27.6 81.7 29 8.4 47.2 27.78 1.094
13:20 1022 30.18 851 25.13 27.6 81.8 29 8.3 46.9 27.74 1.092
13:21 1022 30.18 851 25.13 27.7 81.8 28 8 46.5 27.77 1.093
13:22 1022 30.18 851 25.13 27.6 81.8 27 7.4 45.3 27.83 1.096
13:23 1022 30.18 851 25.13 27.5 81.5 27 7.3 45.2 27.68 1.09
13:24 1022 30.18 851 25.13 27.3 81.2 27 7.1 44.8 27.6 1.087
13:25 1022 30.18 851 25.13 27.3 81.1 28 7.5 45.5 27.51 1.083
13:26 1022 30.18 851 25.13 27.1 80.9 28 7.1 44.9 27.39 1.078
13:27 1022 30.18 851 25.13 27.1 80.8 30 8.4 47.1 27.44 1.08
13:28 1022 30.18 851 25.13 27.2 81 29 7.8 46 27.53 1.084
13:29 1022 30.18 851 25.13 27.3 81.2 29 7.9 46.3 27.63 1.088
13:30 1022 30.18 851 25.13 27.5 81.6 31 9 48.3 27.8 1.094
13:31 1022 30.18 851 25.13 27.6 81.7 26 6.8 44.3 27.81 1.095
13:32 1022 30.18 851 25.13 27.6 81.6 28 7.8 46 27.71 1.091
13:33 1022 30.18 851 25.13 27.6 81.6 28 8 46.3 27.7 1.091
13:34 1022 30.18 851 25.13 27.5 81.5 32 9.5 49.2 27.66 1.089
13:35 1022 30.18 851 25.13 27.5 81.4 27 7.1 44.8 27.68 1.09
13:36 1022 30.18 851 25.13 27.4 81.3 31 9 48.2 27.59 1.086
13:37 1022 30.18 851 25.13 27.3 81.1 29 8.2 46.8 27.55 1.085
13:38 1022 30.18 851 25.13 27.3 81.1 28 7.3 45.2 27.55 1.085
13:39 1022 30.18 851 25.13 27.3 81.1 30 8.2 46.8 27.58 1.086
13:40 1022 30.18 851 25.13 27.3 81.1 30 8.6 47.5 27.6 1.087
13:41 1022 30.18 851 25.13 27.3 81.1 27 7.1 44.8 27.63 1.088
13:42 1022 30.18 851 25.13 27.3 81.1 29 7.8 46.1 27.58 1.086
13:43 1022 30.18 851 25.13 27.3 81.1 29 8.1 46.6 27.63 1.088
13:44 1022 30.18 851 25.13 27.2 81 27 6.7 44.1 27.57 1.085
13:45 1022 30.18 851 25.13 27.2 80.9 32 9.2 48.5 27.51 1.083
13:46 1022 30.18 851 25.13 27.3 81.1 29 7.7 45.9 27.62 1.087
13:47 1022 30.18 851 25.13 27.3 81.2 29 7.8 46 27.68 1.09
13:48 1022 30.18 851 25.13 27.4 81.3 29 7.8 46.1 27.73 1.092
13:49 1022 30.18 851 25.13 27.5 81.5 27 7.2 44.9 27.87 1.097
13:50 1022 30.18 851 25.13 27.6 81.6 31 9.1 48.4 27.92 1.099
13:51 1022 30.18 851 25.13 27.6 81.7 29 8.3 46.9 28.01 1.103
13:52 1022 30.18 851 25.13 27.7 81.9 29 8.1 46.6 28.03 1.104
13:53 1022 30.18 851 25.13 27.8 82 31 9.2 48.6 28.05 1.104
13:54 1022 30.18 851 25.13 27.9 82.1 29 8.5 47.2 28.06 1.105
13:55 1022 30.18 851 25.13 27.9 82.2 25 6.3 43.4 28.1 1.106
13:56 1022 30.18 851 25.13 27.9 82.1 30 8.8 47.9 27.98 1.102
13:57 1021 30.15 851 25.13 27.8 82.1 29 8.6 47.4 28.09 1.106
13:58 1021 30.15 851 25.13 27.9 82.3 26 7.2 45 28.17 1.109
13:59 1021 30.15 851 25.13 28 82.4 24 6 42.8 28.22 1.111
14:00 1021 30.15 851 25.13 28 82.3 25 6.6 43.9 28.15 1.108
14:01 1021 30.15 851 25.13 27.9 82.2 25 6.3 43.3 28.2 1.11
14:02 1021 30.15 851 25.13 28 82.4 27 7.7 45.8 28.26 1.113
14:03 1021 30.15 851 25.13 28.1 82.6 25 6.7 44 28.31 1.115
14:04 1021 30.15 851 25.13 28.2 82.7 29 8.9 48.1 28.35 1.116
14:05 1021 30.15 851 25.13 28.3 82.9 24 6.2 43.1 28.42 1.119
14:06 1021 30.15 851 25.13 28.3 82.9 25 6.9 44.4 28.46 1.12
14:07 1021 30.15 851 25.13 28.3 82.9 26 7.2 45 28.48 1.121
14:08 1021 30.15 851 25.13 28.3 82.9 28 8.1 46.6 28.49 1.122
14:09 1021 30.15 851 25.13 28.4 83.1 27 7.9 46.3 28.56 1.124
14:10 1021 30.15 851 25.13 28.4 83.1 27 8 46.5 28.54 1.124
14:11 1021 30.15 851 25.13 28.4 83.2 26 7.4 45.2 28.58 1.125
14:12 1021 30.15 851 25.13 28.5 83.3 24 6.4 43.6 28.66 1.128
14:13 1021 30.15 851 25.13 28.5 83.4 27 7.8 46 28.75 1.132
14:14 1021 30.15 851 25.13 28.5 83.3 25 7.1 44.8 28.74 1.131
14:15 1021 30.15 851 25.13 28.4 83.1 23 5.8 42.5 28.61 1.126
14:16 1021 30.15 851 25.13 28.3 82.9 24 6.3 43.3 28.46 1.12
14:17 1021 30.15 851 25.13 28.2 82.8 27 7.7 45.8 28.53 1.123
14:18 1021 30.15 851 25.13 28.4 83.2 29 8.8 47.8 28.7 1.13
14:19 1021 30.15 851 25.13 28.5 83.2 26 7.4 45.3 28.8 1.134
14:20 1021 30.15 850 25.1 28.5 83.4 29 9.2 48.6 28.88 1.137
14:21 1021 30.15 850 25.1 28.7 83.6 26 7.4 45.4 29.04 1.143
14:22 1021 30.15 850 25.1 28.8 83.8 29 9.3 48.8 29.08 1.145
14:23 1021 30.15 850 25.1 28.9 84 22 5.5 41.9 29.07 1.144
14:24 1021 30.15 850 25.1 28.8 83.8 23 5.7 42.3 28.9 1.138
14:25 1021 30.15 850 25.1 28.8 83.9 24 6.8 44.2 29 1.142
14:26 1021 30.15 850 25.1 28.9 84 26 7.8 46 29.13 1.147
14:27 1021 30.15 850 25.1 28.9 84 27 8.3 47 29.09 1.145
14:28 1021 30.15 850 25.1 28.9 83.9 23 6 42.9 29.06 1.144
14:29 1021 30.15 850 25.1 28.8 83.8 28 8.6 47.5 29.04 1.143
14:30 1021 30.15 850 25.1 28.8 83.8 25 6.9 44.4 28.98 1.141
14:31 1021 30.15 850 25.1 28.8 83.9 25 7.3 45.1 29.02 1.143
14:32 1021 30.15 850 25.1 28.9 83.9 24 6.8 44.2 29.04 1.143
14:33 1021 30.15 850 25.1 28.9 84 25 7.4 45.3 28.96 1.14
14:34 1021 30.15 850 25.1 28.9 84 21 4.4 39.9 28.97 1.141
14:35 1021 30.15 850 25.1 28.9 83.9 26 8 46.4 29.1 1.146
14:36 1021 30.15 850 25.1 29 84.1 24 6.6 43.8 29.34 1.155
14:37 1021 30.15 850 25.1 29.2 84.6 23 6.5 43.7 29.56 1.164
14:38 1021 30.15 850 25.1 29.4 85 24 7 44.6 29.71 1.17
14:39 1021 30.15 850 25.1 29.5 85.2 25 7.5 45.5 29.78 1.172
14:40 1021 30.15 850 25.1 29.6 85.2 25 7.6 45.7 29.7 1.169
14:41 1021 30.15 850 25.1 29.5 85 27 8.8 47.8 29.6 1.165
14:42 1021 30.15 850 25.1 29.5 85.1 25 7.9 46.3 29.68 1.169
14:43 1021 30.15 850 25.1 29.5 85.2 21 5.6 42.1 29.63 1.167
14:44 1021 30.15 850 25.1 29.5 85 26 8.2 46.7 29.54 1.163
14:45 1021 30.15 850 25.1 29.4 84.9 24 6.9 44.3 29.49 1.161
14:46 1021 30.15 850 25.1 29.3 84.7 21 5.4 41.7 29.42 1.158
14:47 1021 30.15 850 25.1 29.2 84.5 26 7.7 45.9 29.36 1.156
14:48 1021 30.15 850 25.1 29.2 84.6 23 6.2 43.1 29.44 1.159
14:49 1021 30.15 850 25.1 29.3 84.8 21 5 41 29.46 1.16
14:50 1021 30.15 850 25.1 29.4 84.8 24 7.2 44.9 29.44 1.159
14:51 1021 30.15 850 25.1 29.4 84.9 23 6.6 43.8 29.37 1.156
14:52 1021 30.15 850 25.1 29.3 84.7 22 5.4 41.7 29.35 1.156
14:53 1021 30.15 850 25.1 29.2 84.6 20 4.3 39.7 29.38 1.157
14:54 1021 30.15 850 25.1 29.2 84.6 21 4.9 40.8 29.42 1.158
14:55 1021 30.15 850 25.1 29.3 84.8 25 7.4 45.3 29.48 1.161
14:56 1021 30.15 850 25.1 29.3 84.8 25 7.6 45.6 29.55 1.163
14:57 1021 30.15 850 25.1 29.3 84.8 23 6.4 43.4 29.53 1.163
14:58 1021 30.15 850 25.1 29.3 84.8 25 7.7 45.9 29.52 1.162
14:59 1021 30.15 850 25.1 29.3 84.8 21 4.8 40.7 29.56 1.164
15:00 1021 30.15 850 25.1 29.3 84.8 21 4.9 40.8 29.52 1.162
15:01 1021 30.15 850 25.1 29.3 84.8 21 4.9 40.8 29.55 1.163
15:02 1021 30.15 850 25.1 29.3 84.8 22 5.9 42.6 29.6 1.165
15:03 1021 30.15 850 25.1 29.4 85 23 6.4 43.5 29.59 1.165
15:04 1021 30.15 850 25.1 29.5 85.1 20 4.6 40.3 29.7 1.169
15:05 1021 30.15 850 25.1 29.5 85 27 8.8 47.9 29.67 1.168
15:06 1021 30.15 850 25.1 29.6 85.2 22 5.7 42.3 29.85 1.175
15:07 1021 30.15 850 25.1 29.7 85.4 21 5.3 41.6 29.96 1.18
15:08 1021 30.15 850 25.1 29.8 85.6 24 7.3 45.1 29.9 1.177
15:09 1021 30.15 850 25.1 29.7 85.5 21 5.4 41.8 29.85 1.175
15:10 1021 30.15 850 25.1 29.7 85.5 19 3.9 39 29.85 1.175
15:11 1021 30.15 850 25.1 29.7 85.4 23 6.5 43.6 29.76 1.172
15:12 1021 30.15 850 25.1 29.6 85.3 20 4.3 39.8 29.74 1.171
15:13 1021 30.15 850 25.1 29.6 85.2 25 7.7 45.8 29.7 1.169
15:14 1021 30.15 850 25.1 29.5 85.1 19 3.7 38.6 29.65 1.167
15:15 1021 30.15 850 25.1 29.4 85 19 3.8 38.8 29.56 1.164
15:16 1021 30.15 850 25.1 29.4 85 22 5.7 42.2 29.57 1.164
15:17 1021 30.15 850 25.1 29.4 85 19 3.8 38.9 29.68 1.169
15:18 1021 30.15 850 25.1 29.5 85 19 3.6 38.6 29.74 1.171
15:19 1021 30.15 850 25.1 29.6 85.3 22 6.2 43.2 29.88 1.176
15:20 1021 30.15 850 25.1 29.8 85.6 19 4.1 39.3 30.06 1.183
15:21 1021 30.15 850 25.1 29.9 85.8 20 5.1 41.2 30.14 1.187
15:22 1021 30.15 850 25.1 30 86 23 6.7 44 30.23 1.19
15:23 1021 30.15 850 25.1 30.1 86.1 20 5.2 41.3 30.31 1.193
15:24 1021 30.15 850 25.1 29.9 85.9 22 6 42.8 30.12 1.186
15:25 1021 30.15 850 25.1 29.8 85.6 19 4 39.1 30.09 1.185
15:26 1021 30.15 850 25.1 29.8 85.6 18 3.2 37.8 29.93 1.178
15:27 1021 30.15 850 25.1 29.8 85.6 25 7.9 46.2 29.93 1.178
15:28 1021 30.15 850 25.1 29.9 85.7 25 8 46.3 30.2 1.189
15:29 1021 30.15 850 25.1 30.1 86.1 27 9.1 48.4 30.37 1.196
15:30 1021 30.15 850 25.1 30.1 86.2 18 3.6 38.5 30.37 1.196
15:31 1021 30.15 850 25.1 30.1 86.2 19 4.1 39.5 30.29 1.193
15:32 1021 30.15 850 25.1 30.1 86.1 21 5.9 42.6 30.21 1.189
15:33 1021 30.15 850 25.1 30.1 86.1 18 3.2 37.8 30.21 1.189
15:34 1021 30.15 850 25.1 30.1 86.2 20 5.2 41.3 30.29 1.193
15:35 1021 30.15 850 25.1 30.2 86.3 21 5.9 42.6 30.33 1.194
15:36 1021 30.15 850 25.1 30.3 86.5 19 4.8 40.6 30.41 1.197
15:37 1021 30.15 850 25.1 30.3 86.5 20 5.5 41.9 30.4 1.197
15:38 1021 30.15 850 25.1 30.2 86.3 18 3.2 37.8 30.3 1.193
15:39 1020 30.12 850 25.1 30.2 86.3 19 4.6 40.2 30.36 1.195
15:40 1021 30.15 850 25.1 30.1 86.2 17 3.1 37.6 30.32 1.194
15:41 1020 30.12 850 25.1 30.1 86.3 22 6.7 44.1 30.48 1.2
15:42 1020 30.12 850 25.1 30.3 86.5 20 5.2 41.3 30.65 1.207
15:43 1020 30.12 850 25.1 30.4 86.7 19 4.5 40.1 30.66 1.207
15:44 1020 30.12 850 25.1 30.5 86.8 19 4.3 39.7 30.71 1.209
15:45 1020 30.12 850 25.1 30.5 87 21 5.9 42.6 30.87 1.215
15:46 1020 30.12 850 25.1 30.7 87.2 20 5.7 42.3 31.02 1.221
15:47 1020 30.12 850 25.1 30.8 87.4 20 5.3 41.5 31.04 1.222
15:48 1020 30.12 850 25.1 30.9 87.7 19 4.8 40.6 31.12 1.225
15:49 1020 30.12 850 25.1 30.8 87.5 17 3.3 37.9 30.9 1.217
15:50 1020 30.12 850 25.1 30.7 87.2 20 5.8 42.5 30.69 1.208
15:51 1020 30.12 850 25.1 30.7 87.2 22 6.9 44.5 30.77 1.211
15:52 1020 30.12 850 25.1 30.6 87.1 22 6.7 44.1 30.75 1.211
15:53 1020 30.12 850 25.1 30.5 87 23 7.2 44.9 30.59 1.204
15:54 1020 30.12 850 25.1 30.4 86.6 19 4.2 39.5 30.44 1.198
15:55 1020 30.12 850 25.1 30.3 86.5 21 5.6 42.1 30.39 1.196
15:56 1020 30.12 850 25.1 30.2 86.4 19 4.3 39.7 30.24 1.191
15:57 1020 30.12 850 25.1 30.2 86.3 24 7.5 45.5 30.32 1.194
15:58 1020 30.12 850 25.1 30.2 86.4 22 6.5 43.8 30.45 1.199
15:59 1020 30.12 850 25.1 30.2 86.3 22 6.2 43.1 30.32 1.194
16:00 1020 30.12 850 25.1 30.1 86.2 20 4.7 40.5 30.21 1.189
16:01 1020 30.12 850 25.1 30.1 86.1 18 3.8 38.8 30.15 1.187
16:02 1020 30.12 849 25.07 30.1 86.2 20 4.9 40.9 30.19 1.189
16:03 1020 30.12 849 25.07 30.2 86.3 20 4.9 40.8 30.3 1.193
16:04 1020 30.12 849 25.07 30.3 86.6 21 6 42.8 30.54 1.202
16:05 1020 30.12 849 25.07 30.6 87 18 4.2 39.6 30.78 1.212
16:06 1020 30.12 849 25.07 30.8 87.5 18 4.4 39.9 30.86 1.215
16:07 1020 30.12 849 25.07 30.8 87.4 18 4.1 39.5 30.7 1.209
16:08 1020 30.12 849 25.07 30.7 87.2 21 6.1 43 30.83 1.214
16:09 1020 30.12 849 25.07 30.8 87.4 21 6.1 43 31.06 1.223
16:10 1020 30.12 849 25.07 30.6 87.2 21 6.1 43 30.98 1.22
16:11 1020 30.12 849 25.07 30.5 86.9 24 7.9 46.2 30.83 1.214
16:12 1020 30.12 849 25.07 30.5 86.8 21 6.3 43.4 30.78 1.212
16:13 1020 30.12 849 25.07 30.4 86.7 21 6 42.9 30.67 1.207
16:14 1020 30.12 849 25.07 30.3 86.6 21 6 42.8 30.59 1.204
16:15 1020 30.12 849 25.07 30.3 86.6 23 7 44.6 30.63 1.206
16:16 1020 30.12 849 25.07 30.4 86.7 22 6.9 44.4 30.72 1.209
16:17 1020 30.12 849 25.07 30.5 86.9 21 6.3 43.4 30.71 1.209
16:18 1020 30.12 849 25.07 30.5 86.9 24 7.8 46 30.66 1.207
16:19 1020 30.12 849 25.07 30.5 86.8 25 8.4 47.2 30.69 1.208
16:20 1020 30.12 849 25.07 30.6 87 23 7.2 45 30.71 1.209
16:21 1020 30.12 849 25.07 30.6 87 18 4 39.2 30.65 1.207
16:22 1020 30.12 849 25.07 30.5 86.9 20 5.3 41.5 30.6 1.205
16:23 1020 30.12 849 25.07 30.5 86.8 21 5.8 42.5 30.58 1.204
16:24 1020 30.12 849 25.07 30.5 86.8 23 7.2 44.9 30.64 1.206
16:25 1020 30.12 849 25.07 30.6 87 17 3.4 38.2 30.62 1.206
16:26 1020 30.12 849 25.07 30.5 87 22 6.5 43.7 30.56 1.203
16:27 1020 30.12 849 25.07 30.6 87.1 20 5.1 41.3 30.68 1.208
16:28 1020 30.12 849 25.07 30.7 87.2 21 6.1 43 30.65 1.207
16:29 1020 30.12 849 25.07 30.6 87.1 24 8.3 46.9 30.6 1.205
16:30 1020 30.12 849 25.07 30.6 87 19 4.5 40.2 30.58 1.204
16:31 1020 30.12 849 25.07 30.5 86.8 20 5.7 42.2 30.52 1.202
16:32 1020 30.12 849 25.07 30.4 86.8 20 5.5 42 30.55 1.203
16:33 1020 30.12 849 25.07 30.5 86.9 21 6.2 43.2 30.63 1.206
16:34 1020 30.12 849 25.07 30.7 87.2 24 8.1 46.5 30.78 1.212
16:35 1020 30.12 849 25.07 30.7 87.3 26 9.1 48.4 30.89 1.216
16:36 1020 30.12 849 25.07 30.7 87.2 21 5.9 42.6 30.95 1.219
16:37 1020 30.12 849 25.07 30.6 87.1 22 7.1 44.7 30.93 1.218
16:38 1020 30.12 849 25.07 30.6 87.1 21 6.2 43.2 30.78 1.212
16:39 1020 30.12 849 25.07 30.6 87.1 21 6.1 43 30.71 1.209
16:40 1020 30.12 849 25.07 30.5 87 21 6.2 43.2 30.6 1.205
16:41 1020 30.12 849 25.07 30.4 86.8 20 5 41 30.58 1.204
16:42 1020 30.12 849 25.07 30.4 86.7 19 4.5 40.1 30.59 1.204
16:43 1020 30.12 849 25.07 30.5 86.9 21 6.4 43.5 30.63 1.206
16:44 1020 30.12 849 25.07 30.6 87.1 20 5.7 42.2 30.71 1.209
16:45 1020 30.12 849 25.07 30.6 87.1 21 6.3 43.4 30.78 1.212
16:46 1020 30.12 849 25.07 30.7 87.3 20 5.7 42.2 30.85 1.215
16:47 1020 30.12 849 25.07 30.7 87.3 20 5.4 41.7 30.77 1.211
16:48 1020 30.12 849 25.07 30.6 87 19 4.7 40.5 30.61 1.205
16:49 1020 30.12 849 25.07 30.5 86.9 23 7.2 45 30.68 1.208
16:50 1020 30.12 849 25.07 30.5 86.9 19 4.7 40.4 30.65 1.207
16:51 1020 30.12 849 25.07 30.4 86.8 22 6.4 43.6 30.57 1.204
16:52 1020 30.12 849 25.07 30.4 86.8 20 5.4 41.7 30.63 1.206
16:53 1020 30.12 849 25.07 30.5 86.9 21 6 42.8 30.67 1.207
16:54 1020 30.12 849 25.07 30.6 87.2 24 8.2 46.7 30.85 1.215
16:55 1020 30.12 849 25.07 30.8 87.4 22 7.1 44.8 30.99 1.22
16:56 1020 30.12 849 25.07 31 87.8 27 10.3 50.6 31.16 1.227
16:57 1020 30.12 849 25.07 31.1 88.1 21 6.7 44.1 31.26 1.231
16:58 1020 30.12 849 25.07 31 87.8 24 8.3 46.9 31.07 1.223
16:59 1020 30.12 849 25.07 30.9 87.6 17 3.7 38.6 30.99 1.22
17:00 1020 30.12 849 25.07 30.7 87.2 20 5.5 41.8 30.77 1.211
17:01 1020 30.12 849 25.07 30.4 86.8 21 5.8 42.5 30.54 1.202
17:02 1020 30.12 849 25.07 30.2 86.3 19 4.7 40.5 30.33 1.194
17:03 1020 30.12 849 25.07 30 86 22 6.2 43.2 30.21 1.189
17:04 1020 30.12 849 25.07 29.9 85.8 21 5.6 42.1 30.12 1.186
17:05 1020 30.12 849 25.07 29.9 85.8 24 7.4 45.2 30.2 1.189
17:06 1020 30.12 849 25.07 30 85.9 18 3.8 38.8 30.23 1.19
17:07 1020 30.12 849 25.07 30 85.9 23 6.7 44.1 30.2 1.189
17:08 1020 30.12 849 25.07 30.1 86.1 20 5 41 30.33 1.194
17:09 1020 30.12 849 25.07 30.2 86.3 21 5.5 41.9 30.42 1.198
17:10 1020 30.12 849 25.07 30.3 86.6 21 5.8 42.4 30.58 1.204
17:11 1020 30.12 849 25.07 30.4 86.8 20 5.1 41.2 30.66 1.207
17:12 1020 30.12 849 25.07 30.4 86.7 20 5.6 42 30.53 1.202
17:13 1020 30.12 849 25.07 30.4 86.7 17 3.2 37.8 30.52 1.202
17:14 1020 30.12 849 25.07 30.4 86.8 21 6.2 43.2 30.56 1.203
17:15 1019 30.09 849 25.07 30.5 86.9 17 3 37.4 30.63 1.206
17:16 1019 30.09 849 25.07 30.5 87 18 3.9 39.1 30.77 1.211
17:17 1019 30.09 849 25.07 30.7 87.2 19 5.1 41.2 30.88 1.216
17:18 1019 30.09 849 25.07 30.7 87.2 19 4.5 40.2 30.87 1.215
17:19 1019 30.09 849 25.07 30.7 87.2 21 6.3 43.3 30.84 1.214
17:20 1019 30.09 849 25.07 30.7 87.3 20 5.8 42.5 30.88 1.216
17:21 1019 30.09 849 25.07 30.7 87.3 26 9.2 48.5 30.94 1.218
17:22 1019 30.09 849 25.07 30.8 87.4 21 6 42.8 30.94 1.218
17:23 1019 30.09 849 25.07 30.7 87.2 19 5.1 41.2 30.78 1.212
17:24 1019 30.09 849 25.07 30.6 87 22 6.7 44 30.78 1.212
17:25 1019 30.09 849 25.07 30.5 87 17 3.5 38.3 30.69 1.208
17:26 1019 30.09 849 25.07 30.5 86.8 19 4.6 40.2 30.57 1.204
17:27 1019 30.09 849 25.07 30.4 86.8 24 7.8 46.1 30.62 1.206
17:28 1019 30.09 849 25.07 30.5 86.8 24 8.2 46.8 30.71 1.209
17:29 1019 30.09 849 25.07 30.6 87 18 4 39.2 30.79 1.212
17:30 1019 30.09 849 25.07 30.6 87 25 8.5 47.4 30.74 1.21
17:31 1019 30.09 849 25.07 30.7 87.2 23 7.8 46 30.77 1.211
17:32 1019 30.09 849 25.07 30.7 87.2 24 8.1 46.6 30.78 1.212
17:33 1019 30.09 849 25.07 30.6 87.1 21 6.1 43.1 30.7 1.209
17:34 1019 30.09 849 25.07 30.7 87.2 22 6.6 43.8 30.67 1.207
17:35 1019 30.09 849 25.07 30.7 87.2 17 3.6 38.4 30.7 1.209
17:36 1019 30.09 849 25.07 30.7 87.2 22 6.9 44.5 30.78 1.212
17:37 1019 30.09 849 25.07 30.7 87.2 20 5.3 41.5 30.92 1.217
17:38 1019 30.09 849 25.07 30.8 87.4 21 6 42.7 30.94 1.218
17:39 1019 30.09 848 25.04 30.7 87.2 19 4.8 40.6 30.76 1.211
17:40 1019 30.09 849 25.07 30.6 87 21 5.9 42.6 30.67 1.207
17:41 1019 30.09 849 25.07 30.5 86.8 19 4.9 40.9 30.56 1.203
17:42 1019 30.09 849 25.07 30.4 86.8 20 5.6 42.1 30.52 1.202
17:43 1019 30.09 849 25.07 30.5 86.9 17 3.3 38 30.57 1.204
17:44 1019 30.09 849 25.07 30.6 87 18 3.7 38.7 30.62 1.206
17:45 1019 30.09 849 25.07 30.7 87.3 23 7.4 45.4 30.75 1.211
17:46 1019 30.09 849 25.07 30.8 87.5 20 5.3 41.6 30.86 1.215
17:47 1019 30.09 849 25.07 30.7 87.3 20 5.5 41.9 30.7 1.209
17:48 1019 30.09 848 25.04 30.7 87.2 22 6.7 44 30.67 1.207
17:49 1019 30.09 848 25.04 30.6 87.1 20 5.5 41.8 30.77 1.211
17:50 1019 30.09 848 25.04 30.6 87.1 27 9.7 49.5 30.81 1.213
17:51 1019 30.09 848 25.04 30.5 87 20 5.7 42.3 30.71 1.209
17:52 1019 30.09 848 25.04 30.4 86.8 22 6.7 44.1 30.63 1.206
17:53 1019 30.09 848 25.04 30.4 86.6 23 7.4 45.4 30.55 1.203
17:54 1019 30.09 848 25.04 30.3 86.6 21 6.1 43 30.45 1.199
17:55 1019 30.09 848 25.04 30.4 86.6 22 6.8 44.3 30.4 1.197
17:56 1019 30.09 848 25.04 30.4 86.7 21 5.9 42.7 30.43 1.198
17:57 1019 30.09 848 25.04 30.4 86.7 25 8.3 47 30.44 1.198
17:58 1019 30.09 848 25.04 30.4 86.8 25 8.7 47.7 30.44 1.198
17:59 1019 30.09 848 25.04 30.4 86.7 21 6 42.8 30.44 1.198
18:00 1019 30.09 848 25.04 30.4 86.7 21 5.8 42.5 30.47 1.2
18:01 1019 30.09 848 25.04 30.4 86.8 22 6.4 43.5 30.51 1.201
18:02 1019 30.09 848 25.04 30.5 86.9 22 6.5 43.6 30.57 1.204
18:03 1019 30.09 848 25.04 30.5 87 22 6.6 43.8 30.56 1.203
18:04 1019 30.09 848 25.04 30.5 86.8 21 5.8 42.4 30.49 1.2
18:05 1019 30.09 848 25.04 30.3 86.5 20 5.3 41.5 30.27 1.192
18:06 1019 30.09 848 25.04 30 86 21 5.6 42.1 30.02 1.182
18:07 1019 30.09 848 25.04 29.6 85.3 21 5.3 41.6 29.69 1.169
18:08 1019 30.09 848 25.04 29.3 84.7 22 5.6 42.1 29.42 1.158
18:09 1019 30.09 848 25.04 29.1 84.3 25 7.3 45.2 29.22 1.15
18:10 1019 30.09 848 25.04 28.9 84 21 4.9 40.8 29.14 1.147
18:11 1019 30.09 848 25.04 28.8 83.8 24 6.6 43.9 29 1.142
18:12 1019 30.09 848 25.04 28.6 83.5 23 5.9 42.6 28.85 1.136
18:13 1019 30.09 848 25.04 28.5 83.3 25 6.6 43.8 28.67 1.129
18:14 1019 30.09 848 25.04 28.4 83 25 6.6 43.9 28.54 1.124
18:15 1019 30.09 848 25.04 28.3 82.9 23 5.8 42.4 28.44 1.12
18:16 1019 30.09 848 25.04 28.3 82.9 25 6.6 43.8 28.44 1.12
18:17 1019 30.09 848 25.04 28.3 82.9 23 5.4 41.7 28.49 1.122
18:18 1019 30.09 848 25.04 28.3 82.9 25 6.7 44 28.53 1.123
18:19 1019 30.09 848 25.04 28.3 82.9 24 6.2 43.1 28.57 1.125
18:20 1019 30.09 848 25.04 28.4 83 24 6.1 43 28.6 1.126
18:21 1019 30.09 848 25.04 28.3 83 23 5.3 41.5 28.55 1.124
18:22 1019 30.09 848 25.04 28.3 83 24 6.3 43.3 28.54 1.124
18:23 1019 30.09 848 25.04 28.3 83 24 5.9 42.6 28.56 1.124
18:24 1019 30.09 848 25.04 28.3 82.9 24 6.1 43 28.55 1.124
18:25 1019 30.09 848 25.04 28.3 83 24 6.1 43.1 28.6 1.126
18:26 1019 30.09 848 25.04 28.3 83 24 5.9 42.7 28.57 1.125
18:27 1019 30.09 848 25.04 28.3 83 23 5.3 41.5 28.55 1.124
18:28 1019 30.09 848 25.04 28.3 82.9 25 6.8 44.3 28.58 1.125
18:29 1019 30.09 848 25.04 28.3 82.9 21 4.4 39.9 28.55 1.124
18:30 1019 30.09 848 25.04 28.4 83 23 5.3 41.5 28.6 1.126
18:31 1019 30.09 848 25.04 28.4 83.1 21 4.6 40.2 28.67 1.129
18:32 1019 30.09 848 25.04 28.5 83.2 23 5.4 41.8 28.75 1.132
18:33 1019 30.09 848 25.04 28.6 83.4 25 6.8 44.2 28.83 1.135
18:34 1019 30.09 848 25.04 28.6 83.4 21 4.2 39.5 28.87 1.137
18:35 1019 30.09 848 25.04 28.7 83.6 24 6.7 44 28.96 1.14
18:36 1019 30.09 848 25.04 28.8 83.9 27 8.1 46.5 29.08 1.145
18:37 1019 30.09 848 25.04 29 84.1 23 6.1 42.9 29.18 1.149
18:38 1019 30.09 848 25.04 29 84.2 23 5.9 42.6 29.21 1.15
18:39 1019 30.09 848 25.04 29.1 84.3 24 6.8 44.2 29.26 1.152
18:40 1019 30.09 848 25.04 29.2 84.5 23 6 42.8 29.38 1.157
18:41 1019 30.09 848 25.04 29.2 84.6 22 5.6 42.1 29.44 1.159
18:42 1019 30.09 848 25.04 29.2 84.5 24 6.9 44.5 29.37 1.156
18:43 1019 30.09 848 25.04 29.1 84.4 21 4.9 40.7 29.28 1.153
18:44 1019 30.09 848 25.04 29 84.2 21 4.9 40.9 29.17 1.148
18:45 1019 30.09 848 25.04 28.8 83.9 21 4.6 40.3 29.02 1.143
18:46 1019 30.09 848 25.04 28.8 83.9 24 6.8 44.3 28.98 1.141
18:47 1019 30.09 848 25.04 28.8 83.9 21 4.6 40.3 29.05 1.144
18:48 1019 30.09 848 25.04 28.9 84 25 7 44.6 29.13 1.147
18:49 1019 30.09 848 25.04 29 84.2 20 4.4 40 29.24 1.151
18:50 1019 30.09 848 25.04 29.1 84.5 22 5.7 42.3 29.37 1.156
18:51 1019 30.09 848 25.04 29.3 84.7 22 5.7 42.2 29.45 1.159
18:52 1019 30.09 848 25.04 29.4 84.9 22 5.8 42.5 29.48 1.161
18:53 1019 30.09 848 25.04 29.4 84.9 21 5.4 41.7 29.57 1.164
18:54 1019 30.09 848 25.04 29.4 85 19 3.9 39 29.57 1.164
18:55 1019 30.09 848 25.04 29.4 84.9 23 6.2 43.1 29.59 1.165
18:56 1019 30.09 848 25.04 29.4 84.9 21 4.8 40.7 29.57 1.164
18:57 1019 30.09 848 25.04 29.3 84.8 21 4.8 40.6 29.53 1.163
18:58 1019 30.09 848 25.04 29.3 84.7 21 5.3 41.5 29.48 1.161
18:59 1019 30.09 848 25.04 29.3 84.7 21 5 41 29.46 1.16
19:00 1019 30.09 848 25.04 29.2 84.6 23 6.2 43.2 29.43 1.159
19:01 1019 30.09 848 25.04 29.2 84.6 21 5.1 41.2 29.41 1.158
19:02 1019 30.09 848 25.04 29.2 84.6 22 5.9 42.7 29.49 1.161
19:03 1019 30.09 848 25.04 29.3 84.7 24 6.8 44.2 29.55 1.163
19:04 1019 30.09 848 25.04 29.3 84.7 22 5.4 41.8 29.51 1.162
19:05 1019 30.09 848 25.04 29.2 84.6 22 5.4 41.7 29.42 1.158
19:06 1019 30.09 848 25.04 29.2 84.5 24 7.1 44.8 29.37 1.156
19:07 1019 30.09 848 25.04 29.1 84.5 22 5.7 42.3 29.32 1.154
19:08 1019 30.09 848 25.04 29.1 84.4 23 6 42.8 29.3 1.154
19:09 1019 30.09 848 25.04 29.1 84.3 25 7.3 45.2 29.28 1.153
19:10 1019 30.09 848 25.04 29 84.2 24 6.4 43.6 29.19 1.149
19:11 1019 30.09 848 25.04 28.9 84.1 23 6.2 43.1 29.02 1.143
19:12 1019 30.09 848 25.04 28.8 83.9 25 7.2 45 28.95 1.14
19:13 1019 30.09 848 25.04 28.7 83.7 23 6 42.9 28.88 1.137
19:14 1019 30.09 848 25.04 28.7 83.7 23 5.9 42.7 28.89 1.137
19:15 1019 30.09 848 25.04 28.6 83.5 24 6.2 43.1 28.86 1.136
19:16 1019 30.09 848 25.04 28.7 83.6 22 5.2 41.4 28.83 1.135
19:17 1019 30.09 848 25.04 28.7 83.6 24 6.3 43.3 28.88 1.137
19:18 1019 30.09 848 25.04 28.7 83.7 25 6.9 44.4 28.88 1.137
19:19 1019 30.09 848 25.04 28.7 83.6 23 5.8 42.5 28.83 1.135
19:20 1019 30.09 848 25.04 28.7 83.6 24 6.4 43.5 28.81 1.134
19:21 1019 30.09 848 25.04 28.7 83.6 25 7.3 45.1 28.86 1.136
19:22 1019 30.09 848 25.04 28.7 83.6 24 6.5 43.6 28.89 1.137
19:23 1019 30.09 848 25.04 28.7 83.6 22 5.4 41.7 28.84 1.135
19:24 1019 30.09 848 25.04 28.7 83.6 23 5.9 42.7 28.87 1.137
19:25 1019 30.09 848 25.04 28.6 83.5 21 4.2 39.5 28.85 1.136
19:26 1019 30.09 848 25.04 28.7 83.7 22 5.1 41.2 29 1.142
19:27 1019 30.09 848 25.04 28.8 83.8 23 5.6 42.1 29.02 1.143
19:28 1019 30.09 848 25.04 28.7 83.7 23 5.7 42.3 29.01 1.142
19:29 1019 30.09 848 25.04 28.7 83.7 24 6.4 43.6 28.97 1.141
19:30 1019 30.09 848 25.04 28.6 83.5 24 6.7 44 28.84 1.135
19:31 1019 30.09 848 25.04 28.5 83.3 23 5.7 42.3 28.74 1.131
19:32 1019 30.09 848 25.04 28.4 83.2 23 5.7 42.2 28.66 1.128
19:33 1019 30.09 848 25.04 28.2 82.8 24 5.9 42.7 28.43 1.119
19:34 1019 30.09 848 25.04 28 82.4 24 5.9 42.7 28.16 1.109
19:35 1019 30.09 848 25.04 27.8 82.1 23 4.9 40.8 28.07 1.105
19:36 1019 30.09 848 25.04 27.8 82 25 6 42.7 27.99 1.102
19:37 1019 30.09 848 25.04 27.6 81.7 24 5.8 42.5 27.82 1.095
19:38 1019 30.09 848 25.04 27.4 81.3 24 5.4 41.7 27.7 1.091
19:39 1019 30.09 848 25.04 27.4 81.3 24 5.3 41.5 27.67 1.089
19:40 1019 30.09 848 25.04 27.4 81.2 25 6 42.7 27.59 1.086
19:41 1019 30.09 848 25.04 27.3 81.1 24 5.5 41.9 27.5 1.083
19:42 1019 30.09 848 25.04 27.2 80.9 24 5.1 41.2 27.44 1.08
19:43 1019 30.09 848 25.04 27.2 81 26 6.5 43.7 27.49 1.082
19:44 1019 30.09 848 25.04 27 80.6 32 9.1 48.3 27.26 1.073
19:45 1019 30.09 848 25.04 26.3 79.4 30 7.9 46.1 26.66 1.05
19:46 1019 30.09 848 25.04 25.9 78.7 31 7.8 46.1 26.27 1.034
19:47 1019 30.09 848 25.04 25.7 78.2 31 7.6 45.8 25.94 1.021
19:48 1019 30.09 849 25.07 25.4 77.6 31 7.3 45.2 25.69 1.011
19:49 1019 30.09 848 25.04 25.2 77.4 32 7.6 45.7 25.51 1.004
19:50 1019 30.09 849 25.07 25.1 77.2 31 7.2 44.9 25.41 1
19:51 1019 30.09 849 25.07 25.1 77.1 32 7.4 45.3 25.34 0.998
19:52 1019 30.09 849 25.07 24.9 76.9 32 7.4 45.3 25.27 0.995
19:53 1019 30.09 849 25.07 24.8 76.6 33 7.8 46 25.12 0.989
19:54 1019 30.09 849 25.07 24.7 76.4 31 6.7 44.1 25.01 0.985
19:55 1019 30.09 849 25.07 24.7 76.5 30 6.4 43.6 24.99 0.984
19:56 1019 30.09 849 25.07 24.7 76.5 29 5.7 42.3 25 0.984
19:57 1019 30.09 849 25.07 24.8 76.7 29 6.1 42.9 25.13 0.989
19:58 1019 30.09 849 25.07 24.9 76.8 29 5.9 42.6 25.16 0.991
19:59 1019 30.09 849 25.07 24.9 76.7 29 6 42.7 25.19 0.992
20:00 1019 30.09 849 25.07 24.9 76.7 28 5.3 41.5 25.19 0.992
20:01 1019 30.09 849 25.07 24.9 76.8 29 5.7 42.2 25.2 0.992
20:02 1019 30.09 849 25.07 25 76.9 30 6.7 44 25.26 0.994
20:03 1019 30.09 849 25.07 24.7 76.5 31 6.8 44.3 25.11 0.989
20:04 1019 30.09 849 25.07 24.6 76.2 30 6.2 43.2 24.92 0.981
20:05 1019 30.09 849 25.07 24.5 76.1 31 6.5 43.6 24.84 0.978
20:06 1019 30.09 849 25.07 24.4 76 31 6.5 43.6 24.73 0.974
20:07 1019 30.09 849 25.07 24.4 75.8 30 6 42.8 24.68 0.972
20:08 1020 30.12 849 25.07 24.3 75.8 31 6.3 43.4 24.67 0.971
20:09 1020 30.12 849 25.07 24.3 75.8 31 6.6 43.8 24.64 0.97
20:10 1020 30.12 849 25.07 24.2 75.6 33 7.2 45 24.52 0.965
20:11 1020 30.12 849 25.07 23.9 75.1 34 7.3 45.1 24.33 0.958
20:12 1020 30.12 849 25.07 23.7 74.7 35 7.5 45.5 24.11 0.949
20:13 1020 30.12 849 25.07 23.6 74.5 36 7.7 45.9 23.93 0.942
20:14 1020 30.12 849 25.07 23.5 74.3 36 7.6 45.7 23.81 0.937
20:15 1020 30.12 849 25.07 23.4 74.1 35 7.4 45.3 23.72 0.934
20:16 1020 30.12 849 25.07 23.4 74.1 35 7.4 45.3 23.63 0.93
20:17 1020 30.12 849 25.07 23.4 74.2 35 7.2 44.9 23.73 0.934
20:18 1020 30.12 849 25.07 23.4 74.2 35 7.4 45.3 23.74 0.935
20:19 1020 30.12 849 25.07 23.4 74.1 36 7.6 45.6 23.67 0.932
20:20 1020 30.12 849 25.07 23.3 74 36 7.8 46 23.62 0.93
20:21 1020 30.12 849 25.07 23.2 73.7 37 8 46.4 23.48 0.924
20:22 1020 30.12 849 25.07 23.1 73.5 38 8.2 46.8 23.36 0.92
20:23 1020 30.12 849 25.07 22.9 73.2 39 8.5 47.3 23.19 0.913
20:24 1020 30.12 849 25.07 22.7 72.9 40 8.5 47.4 23.06 0.908
20:25 1020 30.12 849 25.07 22.6 72.6 40 8.5 47.2 22.93 0.903
20:26 1020 30.12 849 25.07 22.5 72.5 40 8.4 47.1 22.82 0.898
20:27 1020 30.12 849 25.07 22.4 72.3 40 8.3 47 22.71 0.894
20:28 1020 30.12 849 25.07 22.4 72.4 38 7.6 45.7 22.71 0.894
20:29 1020 30.12 849 25.07 22.6 72.8 35 6.8 44.2 22.9 0.902
20:30 1020 30.12 850 25.1 22.9 73.3 34 6.6 43.9 23.21 0.914
20:31 1020 30.12 850 25.1 23.2 73.7 33 6.4 43.5 23.4 0.921
20:32 1020 30.12 850 25.1 23.3 74 33 6.2 43.2 23.56 0.928
20:33 1020 30.12 850 25.1 23.4 74.2 34 6.7 44 23.75 0.935
20:34 1020 30.12 850 25.1 23.5 74.2 35 7.4 45.3 23.79 0.937
20:35 1020 30.12 850 25.1 23.3 74 35 7.1 44.7 23.65 0.931
20:36 1020 30.12 850 25.1 23.3 73.9 35 7.2 45 23.62 0.93
20:37 1020 30.12 850 25.1 23.2 73.8 34 6.9 44.4 23.55 0.927
20:38 1020 30.12 850 25.1 23.3 73.9 35 7.2 44.9 23.59 0.929
20:39 1020 30.12 850 25.1 23.3 73.9 35 7.3 45.1 23.58 0.928
20:40 1020 30.12 850 25.1 23.2 73.8 36 7.3 45.2 23.55 0.927
20:41 1020 30.12 850 25.1 23.2 73.7 36 7.5 45.5 23.48 0.924
20:42 1020 30.12 850 25.1 23.1 73.5 37 7.7 45.8 23.35 0.919
20:43 1021 30.15 850 25.1 22.9 73.3 36 7.3 45.2 23.22 0.914
20:44 1021 30.15 850 25.1 23 73.3 37 7.6 45.6 23.2 0.913
20:45 1021 30.15 850 25.1 22.9 73.2 36 7.1 44.8 23.22 0.914
20:46 1021 30.15 850 25.1 22.9 73.2 37 7.6 45.7 23.18 0.913
20:47 1021 30.15 850 25.1 22.9 73.2 37 7.8 46 23.21 0.914
20:48 1021 30.15 850 25.1 22.8 73 39 8.4 47 23.13 0.911
20:49 1021 30.15 850 25.1 22.7 72.8 39 8.2 46.8 22.93 0.903
20:50 1021 30.15 850 25.1 22.5 72.5 41 8.9 48.1 22.85 0.9
20:51 1021 30.15 850 25.1 22.3 72.2 42 8.9 48.1 22.67 0.893
20:52 1021 30.15 850 25.1 22.2 71.9 43 9 48.3 22.51 0.886
20:53 1021 30.15 850 25.1 22 71.6 44 9.5 49.1 22.31 0.878
20:54 1021 30.15 850 25.1 21.8 71.3 45 9.5 49.1 22.12 0.871
20:55 1021 30.15 850 25.1 21.7 71 45 9.5 49 21.89 0.862
20:56 1021 30.15 850 25.1 21.5 70.6 46 9.5 49 21.71 0.855
20:57 1021 30.15 850 25.1 21.3 70.4 45 9.2 48.5 21.6 0.85
20:58 1021 30.15 850 25.1 21.3 70.3 44 8.8 47.8 21.57 0.849
20:59 1021 30.15 850 25.1 21.3 70.3 43 8.3 46.9 21.62 0.851
21:00 1021 30.15 850 25.1 21.5 70.6 42 8.2 46.7 21.78 0.857
21:01 1021 30.15 850 25.1 21.7 71.1 41 8 46.5 22.11 0.87
21:02 1021 30.15 850 25.1 21.9 71.5 41 8.2 46.7 22.33 0.879
21:03 1021 30.15 850 25.1 22.1 71.9 39 7.6 45.6 22.53 0.887
21:04 1021 30.15 850 25.1 22.3 72.1 39 7.8 46 22.64 0.891
21:05 1021 30.15 850 25.1 22.4 72.3 39 8.1 46.6 22.74 0.895
21:06 1021 30.15 850 25.1 22.5 72.4 39 7.9 46.2 22.74 0.895
21:07 1021 30.15 850 25.1 22.4 72.4 38 7.7 45.9 22.81 0.898
21:08 1021 30.15 850 25.1 22.6 72.6 38 7.8 46 22.86 0.9
21:09 1021 30.15 850 25.1 22.6 72.7 39 8 46.4 23.03 0.907
21:10 1021 30.15 850 25.1 22.7 72.8 38 8 46.4 22.96 0.904
21:11 1021 30.15 850 25.1 22.6 72.7 39 8.2 46.8 22.93 0.903
21:12 1021 30.15 850 25.1 22.6 72.7 39 8.2 46.7 22.9 0.902
21:13 1021 30.15 850 25.1 22.6 72.7 40 8.5 47.3 22.84 0.899
21:14 1021 30.15 850 25.1 22.5 72.5 40 8.4 47.2 22.83 0.899
21:15 1021 30.15 850 25.1 22.4 72.3 40 8.2 46.7 22.72 0.894
21:16 1021 30.15 850 25.1 22.4 72.3 39 7.8 46 22.66 0.892
21:17 1021 30.15 850 25.1 22.4 72.2 39 8 46.3 22.69 0.893
21:18 1021 30.15 850 25.1 22.4 72.3 40 8.1 46.7 22.72 0.894
21:19 1021 30.15 850 25.1 22.4 72.3 40 8.3 46.9 22.7 0.894
21:20 1021 30.15 850 25.1 22.4 72.3 43 9.2 48.6 22.7 0.894
21:21 1021 30.15 850 25.1 22.2 72 41 8.5 47.3 22.56 0.888
21:22 1021 30.15 850 25.1 22.1 71.8 41 8.6 47.4 22.45 0.884
21:23 1021 30.15 850 25.1 22 71.6 43 8.9 48 22.32 0.879
21:24 1021 30.15 850 25.1 21.9 71.4 44 9.3 48.7 22.18 0.873
21:25 1021 30.15 850 25.1 21.7 71.1 44 9.1 48.4 21.99 0.866
21:26 1021 30.15 850 25.1 21.5 70.8 45 9.2 48.5 21.83 0.859
21:27 1021 30.15 850 25.1 21.4 70.5 44 8.9 48.1 21.7 0.854
21:28 1021 30.15 850 25.1 21.3 70.4 46 9.3 48.8 21.63 0.852
21:29 1021 30.15 850 25.1 21.3 70.4 47 9.7 49.5 21.6 0.85
21:30 1021 30.15 850 25.1 21.3 70.3 45 9.1 48.3 21.54 0.848
21:31 1021 30.15 850 25.1 21.3 70.3 45 9.1 48.4 21.59 0.85
21:32 1021 30.15 850 25.1 21.4 70.4 44 8.7 47.7 21.68 0.854
21:33 1021 30.15 850 25.1 21.5 70.6 43 8.4 47.1 21.8 0.858
21:34 1021 30.15 850 25.1 21.6 71 42 8.2 46.8 21.93 0.863
21:35 1021 30.15 850 25.1 21.8 71.2 41 8.2 46.8 22.1 0.87
21:36 1021 30.15 850 25.1 21.9 71.4 41 8.3 46.9 22.22 0.875
21:37 1021 30.15 850 25.1 22 71.5 41 8.2 46.8 22.28 0.877
21:38 1021 30.15 850 25.1 21.9 71.5 41 8.4 47.1 22.28 0.877
21:39 1021 30.15 850 25.1 21.9 71.5 41 8.2 46.7 22.26 0.876
21:40 1021 30.15 850 25.1 22 71.6 42 8.6 47.4 22.31 0.878
21:41 1021 30.15 850 25.1 22 71.7 41 8.4 47.1 22.33 0.879
21:42 1021 30.15 850 25.1 22 71.5 42 8.7 47.6 22.29 0.878
21:43 1021 30.15 850 25.1 21.9 71.5 42 8.8 47.8 22.26 0.876
21:44 1021 30.15 850 25.1 21.9 71.4 42 8.5 47.3 22.16 0.872
21:45 1021 30.15 850 25.1 21.9 71.4 42 8.6 47.4 22.17 0.873
21:46 1021 30.15 850 25.1 21.8 71.3 42 8.6 47.4 22.13 0.871
21:47 1021 30.15 850 25.1 21.8 71.3 43 8.9 48.1 22.15 0.872
21:48 1021 30.15 851 25.13 21.8 71.2 42 8.3 46.9 22.02 0.867
21:49 1021 30.15 851 25.13 21.7 71.1 42 8.4 47.2 22.04 0.868
21:50 1021 30.15 851 25.13 21.8 71.2 42 8.5 47.3 22.08 0.869
21:51 1021 30.15 851 25.13 21.8 71.2 43 8.7 47.6 22.11 0.87
21:52 1021 30.15 851 25.13 21.7 71.1 43 8.8 47.9 22.01 0.867
21:53 1021 30.15 851 25.13 21.7 71 44 8.9 48.1 21.98 0.865
21:54 1021 30.15 851 25.13 21.6 70.8 43 8.7 47.6 21.82 0.859
21:55 1022 30.18 851 25.13 21.5 70.7 45 9.1 48.4 21.77 0.857
21:56 1022 30.18 851 25.13 21.4 70.5 45 9.1 48.3 21.65 0.852
21:57 1022 30.18 851 25.13 21.3 70.3 45 9 48.1 21.59 0.85
21:58 1022 30.18 851 25.13 21.2 70.2 45 9 48.1 21.5 0.846
21:59 1022 30.18 851 25.13 21.2 70.2 44 8.6 47.5 21.5 0.846
22:00 1022 30.18 851 25.13 21.2 70.2 43 8.3 46.9 21.48 0.846
22:01 1022 30.18 851 25.13 21.3 70.3 42 8 46.5 21.62 0.851
22:02 1022 30.18 851 25.13 21.4 70.6 42 8.1 46.6 21.79 0.858
22:03 1022 30.18 851 25.13 21.5 70.7 41 8 46.5 21.88 0.861
22:04 1022 30.18 851 25.13 21.5 70.8 41 7.9 46.2 21.86 0.861
22:05 1022 30.18 851 25.13 21.6 70.8 41 8.1 46.5 21.9 0.862
22:06 1022 30.18 851 25.13 21.6 70.9 42 8.3 46.9 21.96 0.865
22:07 1022 30.18 851 25.13 21.6 70.9 42 8.3 46.9 21.97 0.865
22:08 1022 30.18 851 25.13 21.6 70.9 45 9.3 48.7 21.95 0.864
22:09 1022 30.18 851 25.13 21.5 70.8 43 8.6 47.5 21.85 0.86
22:10 1022 30.18 851 25.13 21.5 70.7 42 8.2 46.7 21.75 0.856
22:11 1022 30.18 851 25.13 21.5 70.8 45 9.3 48.7 21.81 0.859
22:12 1022 30.18 851 25.13 21.5 70.6 43 8.7 47.6 21.77 0.857
22:13 1022 30.18 851 25.13 21.3 70.3 44 8.8 47.8 21.65 0.852
22:14 1022 30.18 851 25.13 21.3 70.3 43 8.2 46.8 21.55 0.848
22:15 1022 30.18 851 25.13 21.3 70.3 45 8.9 48 21.54 0.848
22:16 1022 30.18 851 25.13 21.2 70.1 47 9.5 49.2 21.53 0.848
22:17 1022 30.18 851 25.13 20.9 69.6 49 10 50.1 21.29 0.838
22:18 1022 30.18 851 25.13 20.7 69.2 44 8.2 46.8 21 0.827
22:19 1022 30.18 851 25.13 20.8 69.5 46 8.8 47.8 21.06 0.829
22:20 1022 30.18 851 25.13 20.8 69.5 50 10 50.1 21.14 0.832
22:21 1022 30.18 851 25.13 20.5 68.9 50 9.7 49.5 20.9 0.823
22:22 1022 30.18 851 25.13 20.3 68.6 48 9.1 48.5 20.7 0.815
22:23 1021 30.15 851 25.13 20.3 68.6 49 9.3 48.7 20.63 0.812
22:24 1021 30.15 851 25.13 20.3 68.5 49 9.5 49 20.62 0.812
22:25 1021 30.15 851 25.13 20.3 68.5 48 9.1 48.3 20.58 0.81
22:26 1021 30.15 851 25.13 20.3 68.5 48 9 48.2 20.54 0.809
22:27 1021 30.15 851 25.13 20.4 68.6 46 8.4 47.1 20.62 0.812
22:28 1021 30.15 851 25.13 20.5 68.8 50 9.7 49.4 20.67 0.814
22:29 1021 30.15 851 25.13 20.4 68.6 50 9.7 49.4 20.72 0.816
22:30 1022 30.18 851 25.13 20.2 68.3 54 10.6 51.1 20.54 0.809
22:31 1021 30.15 851 25.13 19.9 67.9 54 10.6 51.1 20.36 0.802
22:32 1021 30.15 851 25.13 19.6 67.4 55 10.4 50.8 20.13 0.793
22:33 1022 30.18 851 25.13 19.5 67.1 56 10.5 50.9 19.86 0.782
22:34 1021 30.15 851 25.13 19.3 66.7 57 10.7 51.3 19.73 0.777
22:35 1021 30.15 851 25.13 19.1 66.5 59 11 51.8 19.53 0.769
22:36 1022 30.18 851 25.13 18.9 66 59 10.9 51.5 19.35 0.762
22:37 1021 30.15 851 25.13 18.8 65.9 58 10.5 50.9 19.19 0.756
22:38 1022 30.18 851 25.13 18.9 65.9 58 10.5 50.9 19.19 0.756
22:39 1021 30.15 851 25.13 18.8 65.9 56 10 50 19.14 0.754
22:40 1021 30.15 851 25.13 18.9 66.1 57 10.2 50.4 19.24 0.757
22:41 1021 30.15 851 25.13 19 66.2 57 10.4 50.8 19.3 0.76
22:42 1021 30.15 851 25.13 19 66.2 58 10.6 51 19.34 0.761
22:43 1021 30.15 851 25.13 18.9 66.1 58 10.6 51.1 19.27 0.759
22:44 1021 30.15 851 25.13 18.9 66 57 10.2 50.4 19.25 0.758
22:45 1021 30.15 851 25.13 18.9 66.1 58 10.7 51.2 19.29 0.759
22:46 1021 30.15 851 25.13 18.9 65.9 57 10.3 50.5 19.24 0.757
22:47 1021 30.15 851 25.13 18.9 65.9 56 10.1 50.2 19.2 0.756
22:48 1021 30.15 851 25.13 18.9 66.1 56 10 50.1 19.28 0.759
22:49 1021 30.15 851 25.13 18.9 66.1 58 10.6 51 19.3 0.76
22:50 1021 30.15 851 25.13 18.8 65.8 58 10.5 50.8 19.15 0.754
22:51 1021 30.15 851 25.13 18.7 65.7 58 10.4 50.8 19.08 0.751
22:52 1021 30.15 851 25.13 18.7 65.6 59 10.7 51.2 19.03 0.749
22:53 1021 30.15 851 25.13 18.6 65.4 61 10.9 51.7 18.94 0.746
22:54 1022 30.18 851 25.13 18.4 65.2 62 11.1 52 18.85 0.742
22:55 1022 30.18 851 25.13 18.2 64.7 63 11.1 52 18.64 0.734
22:56 1022 30.18 851 25.13 18.1 64.5 62 10.7 51.3 18.45 0.726
22:57 1022 30.18 851 25.13 18.1 64.5 63 11 51.8 18.47 0.727
22:58 1022 30.18 851 25.13 18 64.4 64 11.3 52.3 18.45 0.726
22:59 1022 30.18 851 25.13 17.8 64.1 65 11.3 52.3 18.32 0.721
23:00 1022 30.18 851 25.13 17.7 63.9 66 11.4 52.6 18.14 0.714
23:01 1022 30.18 851 25.13 17.6 63.6 67 11.4 52.5 18 0.709
23:02 1022 30.18 851 25.13 17.5 63.4 67 11.4 52.5 17.85 0.703
23:03 1022 30.18 851 25.13 17.3 63.2 67 11.3 52.4 17.78 0.7
23:04 1022 30.18 851 25.13 17.3 63.2 67 11.3 52.3 17.72 0.698
23:05 1022 30.18 851 25.13 17.3 63.1 68 11.3 52.3 17.66 0.695
23:06 1022 30.18 851 25.13 17.3 63.1 68 11.4 52.5 17.68 0.696
23:07 1021 30.15 851 25.13 17.3 63.1 69 11.5 52.7 17.64 0.694
23:08 1021 30.15 851 25.13 17.2 63 69 11.5 52.7 17.58 0.692
23:09 1022 30.18 851 25.13 17.1 62.8 69 11.4 52.6 17.52 0.69
23:10 1021 30.15 851 25.13 17 62.6 69 11.3 52.4 17.45 0.687
23:11 1021 30.15 851 25.13 17 62.6 69 11.4 52.5 17.42 0.686
23:12 1021 30.15 851 25.13 17 62.5 69 11.4 52.5 17.35 0.683
23:13 1021 30.15 851 25.13 16.9 62.5 69 11.3 52.4 17.26 0.68
23:14 1022 30.18 851 25.13 16.9 62.4 69 11.2 52.2 17.31 0.681
23:15 1022 30.18 851 25.13 17 62.5 68 11.1 52.1 17.34 0.683
23:16 1022 30.18 851 25.13 17 62.6 67 10.9 51.6 17.4 0.685
23:17 1022 30.18 851 25.13 17.2 62.9 66 10.9 51.6 17.49 0.689
23:18 1021 30.15 851 25.13 17.2 63 66 10.9 51.6 17.58 0.692
23:19 1021 30.15 851 25.13 17.3 63.1 66 11 51.8 17.64 0.694
23:20 1021 30.15 851 25.13 17.3 63.1 66 10.9 51.6 17.64 0.694
23:21 1021 30.15 851 25.13 17.3 63.1 66 11 51.7 17.67 0.696
23:22 1021 30.15 851 25.13 17.3 63.1 66 11 51.8 17.68 0.696
23:23 1021 30.15 851 25.13 17.3 63.1 66 11 51.8 17.64 0.694
23:24 1022 30.18 851 25.13 17.2 63 66 11 51.8 17.58 0.692
23:25 1022 30.18 851 25.13 17.2 62.9 67 11.1 51.9 17.53 0.69
23:26 1022 30.18 851 25.13 17.1 62.7 68 11.2 52.1 17.45 0.687
23:27 1022 30.18 851 25.13 16.9 62.5 68 11.1 52 17.34 0.683
23:28 1022 30.18 851 25.13 16.8 62.3 69 11.1 52 17.21 0.678
23:29 1022 30.18 851 25.13 16.8 62.2 69 11.1 51.9 17.13 0.674
23:30 1022 30.18 851 25.13 16.7 62.1 69 11 51.8 17.11 0.674
23:31 1022 30.18 851 25.13 16.8 62.2 69 11 51.9 17.07 0.672
23:32 1022 30.18 851 25.13 16.6 62 69 11 51.8 17.06 0.672
23:33 1022 30.18 851 25.13 16.6 61.9 69 10.9 51.6 17.03 0.67
23:34 1022 30.18 851 25.13 16.6 61.9 70 11.1 52 17.01 0.67
23:35 1022 30.18 851 25.13 16.6 61.9 71 11.3 52.4 16.97 0.668
23:36 1022 30.18 851 25.13 16.5 61.7 72 11.4 52.5 16.88 0.665
23:37 1022 30.18 851 25.13 16.3 61.4 73 11.4 52.6 16.79 0.661
23:38 1022 30.18 851 25.13 16.2 61.1 73 11.4 52.6 16.62 0.654
23:39 1022 30.18 851 25.13 16.1 60.9 74 11.4 52.5 16.51 0.65
23:40 1022 30.18 851 25.13 15.9 60.6 74 11.4 52.4 16.4 0.646
23:41 1022 30.18 851 25.13 15.8 60.5 75 11.4 52.5 16.27 0.641
23:42 1022 30.18 851 25.13 15.7 60.3 75 11.4 52.5 16.18 0.637
23:43 1022 30.18 851 25.13 15.7 60.2 75 11.4 52.4 16.13 0.635
23:44 1022 30.18 851 25.13 15.6 60.2 75 11.3 52.4 16.11 0.634
23:45 1022 30.18 851 25.13 15.7 60.2 75 11.3 52.4 16.04 0.631
23:46 1022 30.18 851 25.13 15.7 60.2 74 11.2 52.1 16.05 0.632
23:47 1022 30.18 851 25.13 15.8 60.4 73 10.9 51.7 16.12 0.635
23:48 1022 30.18 851 25.13 16 60.7 71 10.7 51.3 16.23 0.639
23:49 1022 30.18 851 25.13 16.2 61.2 70 10.7 51.3 16.4 0.646
23:50 1022 30.18 851 25.13 16.4 61.5 69 10.8 51.5 16.58 0.653
23:51 1022 30.18 851 25.13 16.4 61.6 70 11 51.8 16.64 0.655
23:52 1022 30.18 851 25.13 16.4 61.4 71 11.1 51.9 16.59 0.653
23:53 1022 30.18 851 25.13 16.2 61.2 71 11 51.9 16.54 0.651
23:54 1021 30.15 851 25.13 16.2 61.1 71 11 51.8 16.45 0.648
23:55 1021 30.15 851 25.13 16.1 61 72 11 51.9 16.37 0.644
23:56 1021 30.15 851 25.13 16 60.8 71 10.9 51.5 16.31 0.642
23:57 1021 30.15 851 25.13 16 60.8 71 10.7 51.3 16.3 0.642
23:58 1021 30.15 851 25.13 16 60.8 70 10.6 51.1 16.36 0.644
23:59 1021 30.15 851 25.13 16.1 60.9 70 10.6 51.1 16.41 0.646
24:00 1021 30.15 851 25.13 16 60.9 69 10.4 50.6 16.37 0.644